<?xml version="1.0" encoding="UTF-8" standalone="no" ?>
<gpx xmlns="http://www.topografix.com/GPX/1/1" xmlns:xsi="http://www.w3.org/2001/XMLSchema-instance" xsi:schemaLocation="http://www.topografix.com/GPX/1/1 http://www.topografix.com/GPX/1/1/gpx.xsd" version="1.1" creator="VisuGPX - https://www.visugpx.com">
  <metadata>
    <name>Vacances 2021</name>
  </metadata>
  <trk>
    <name><![CDATA[Journal actif: 2021-07-26 09:55]]></name>
    <trkseg>
      <trkpt lat="49.46194" lon="4.63058">
        <ele>94.35</ele>
        <time>2021-07-26T11:55:16Z</time>
      </trkpt>
      <trkpt lat="49.46196" lon="4.63062">
        <ele>95.79</ele>
        <time>2021-07-26T11:56:53Z</time>
      </trkpt>
      <trkpt lat="49.46196" lon="4.63066">
        <ele>95.31</ele>
        <time>2021-07-26T11:57:33Z</time>
      </trkpt>
      <trkpt lat="49.46196" lon="4.63064">
        <ele>95.31</ele>
        <time>2021-07-26T11:57:35Z</time>
      </trkpt>
      <trkpt lat="49.46187" lon="4.63062">
        <ele>95.31</ele>
        <time>2021-07-26T11:57:46Z</time>
      </trkpt>
      <trkpt lat="49.46189" lon="4.63063">
        <ele>95.31</ele>
        <time>2021-07-26T11:57:54Z</time>
      </trkpt>
      <trkpt lat="49.4619" lon="4.63075">
        <ele>95.31</ele>
        <time>2021-07-26T11:58:00Z</time>
      </trkpt>
      <trkpt lat="49.46192" lon="4.6309">
        <ele>94.35</ele>
        <time>2021-07-26T11:58:17Z</time>
      </trkpt>
      <trkpt lat="49.46192" lon="4.63097">
        <ele>93.87</ele>
        <time>2021-07-26T11:59:00Z</time>
      </trkpt>
      <trkpt lat="49.46192" lon="4.63099">
        <ele>93.87</ele>
        <time>2021-07-26T11:59:06Z</time>
      </trkpt>
      <trkpt lat="49.46197" lon="4.63103">
        <ele>93.87</ele>
        <time>2021-07-26T11:59:10Z</time>
      </trkpt>
      <trkpt lat="49.46197" lon="4.63103">
        <ele>93.87</ele>
        <time>2021-07-26T11:59:11Z</time>
      </trkpt>
      <trkpt lat="49.462" lon="4.63102">
        <ele>94.35</ele>
        <time>2021-07-26T11:59:12Z</time>
      </trkpt>
      <trkpt lat="49.46203" lon="4.63101">
        <ele>94.35</ele>
        <time>2021-07-26T11:59:13Z</time>
      </trkpt>
      <trkpt lat="49.46261" lon="4.63087">
        <ele>95.79</ele>
        <time>2021-07-26T11:59:25Z</time>
      </trkpt>
      <trkpt lat="49.46332" lon="4.63024">
        <ele>97.71</ele>
        <time>2021-07-26T11:59:36Z</time>
      </trkpt>
      <trkpt lat="49.46384" lon="4.62894">
        <ele>100.11</ele>
        <time>2021-07-26T11:59:47Z</time>
      </trkpt>
      <trkpt lat="49.46434" lon="4.62689">
        <ele>102.04</ele>
        <time>2021-07-26T12:00:02Z</time>
      </trkpt>
      <trkpt lat="49.46462" lon="4.62514">
        <ele>103.48</ele>
        <time>2021-07-26T12:00:12Z</time>
      </trkpt>
      <trkpt lat="49.46488" lon="4.62213">
        <ele>101.08</ele>
        <time>2021-07-26T12:00:27Z</time>
      </trkpt>
      <trkpt lat="49.46525" lon="4.61806">
        <ele>98.67</ele>
        <time>2021-07-26T12:00:43Z</time>
      </trkpt>
      <trkpt lat="49.46586" lon="4.61269">
        <ele>98.19</ele>
        <time>2021-07-26T12:01:02Z</time>
      </trkpt>
      <trkpt lat="49.46641" lon="4.61099">
        <ele>101.08</ele>
        <time>2021-07-26T12:01:10Z</time>
      </trkpt>
      <trkpt lat="49.46826" lon="4.60636">
        <ele>101.08</ele>
        <time>2021-07-26T12:01:30Z</time>
      </trkpt>
      <trkpt lat="49.46955" lon="4.60257">
        <ele>96.75</ele>
        <time>2021-07-26T12:01:44Z</time>
      </trkpt>
      <trkpt lat="49.46962" lon="4.60235">
        <ele>96.27</ele>
        <time>2021-07-26T12:01:46Z</time>
      </trkpt>
      <trkpt lat="49.46973" lon="4.60218">
        <ele>96.75</ele>
        <time>2021-07-26T12:01:47Z</time>
      </trkpt>
      <trkpt lat="49.46995" lon="4.60184">
        <ele>96.75</ele>
        <time>2021-07-26T12:01:48Z</time>
      </trkpt>
      <trkpt lat="49.46995" lon="4.60184">
        <ele>96.75</ele>
        <time>2021-07-26T12:01:49Z</time>
      </trkpt>
      <trkpt lat="49.47008" lon="4.60171">
        <ele>96.75</ele>
        <time>2021-07-26T12:01:50Z</time>
      </trkpt>
      <trkpt lat="49.47021" lon="4.60157">
        <ele>96.75</ele>
        <time>2021-07-26T12:01:51Z</time>
      </trkpt>
      <trkpt lat="49.47113" lon="4.60053">
        <ele>94.35</ele>
        <time>2021-07-26T12:01:58Z</time>
      </trkpt>
      <trkpt lat="49.47124" lon="4.60038">
        <ele>94.35</ele>
        <time>2021-07-26T12:01:59Z</time>
      </trkpt>
      <trkpt lat="49.47133" lon="4.60019">
        <ele>93.87</ele>
        <time>2021-07-26T12:02:00Z</time>
      </trkpt>
      <trkpt lat="49.47143" lon="4.59999">
        <ele>93.87</ele>
        <time>2021-07-26T12:02:01Z</time>
      </trkpt>
      <trkpt lat="49.47153" lon="4.59978">
        <ele>93.87</ele>
        <time>2021-07-26T12:02:02Z</time>
      </trkpt>
      <trkpt lat="49.47255" lon="4.59716">
        <ele>92.42</ele>
        <time>2021-07-26T12:02:14Z</time>
      </trkpt>
      <trkpt lat="49.47364" lon="4.59434">
        <ele>90.5</ele>
        <time>2021-07-26T12:02:29Z</time>
      </trkpt>
      <trkpt lat="49.47425" lon="4.59268">
        <ele>88.1</ele>
        <time>2021-07-26T12:02:39Z</time>
      </trkpt>
      <trkpt lat="49.47491" lon="4.59059">
        <ele>90.98</ele>
        <time>2021-07-26T12:02:53Z</time>
      </trkpt>
      <trkpt lat="49.47563" lon="4.58793">
        <ele>82.33</ele>
        <time>2021-07-26T12:03:09Z</time>
      </trkpt>
      <trkpt lat="49.47587" lon="4.58685">
        <ele>80.41</ele>
        <time>2021-07-26T12:03:16Z</time>
      </trkpt>
      <trkpt lat="49.47592" lon="4.58654">
        <ele>80.41</ele>
        <time>2021-07-26T12:03:23Z</time>
      </trkpt>
      <trkpt lat="49.47598" lon="4.58623">
        <ele>80.41</ele>
        <time>2021-07-26T12:03:57Z</time>
      </trkpt>
      <trkpt lat="49.47608" lon="4.5852">
        <ele>78.48</ele>
        <time>2021-07-26T12:04:05Z</time>
      </trkpt>
      <trkpt lat="49.47608" lon="4.58459">
        <ele>77.04</ele>
        <time>2021-07-26T12:04:09Z</time>
      </trkpt>
      <trkpt lat="49.47608" lon="4.58445">
        <ele>77.52</ele>
        <time>2021-07-26T12:04:10Z</time>
      </trkpt>
      <trkpt lat="49.47609" lon="4.58432">
        <ele>77.52</ele>
        <time>2021-07-26T12:04:11Z</time>
      </trkpt>
      <trkpt lat="49.47612" lon="4.5842">
        <ele>77.52</ele>
        <time>2021-07-26T12:04:12Z</time>
      </trkpt>
      <trkpt lat="49.47616" lon="4.58407">
        <ele>77.52</ele>
        <time>2021-07-26T12:04:13Z</time>
      </trkpt>
      <trkpt lat="49.47685" lon="4.58208">
        <ele>77.04</ele>
        <time>2021-07-26T12:04:27Z</time>
      </trkpt>
      <trkpt lat="49.47754" lon="4.57993">
        <ele>77.52</ele>
        <time>2021-07-26T12:04:44Z</time>
      </trkpt>
      <trkpt lat="49.47766" lon="4.57955">
        <ele>76.08</ele>
        <time>2021-07-26T12:04:52Z</time>
      </trkpt>
      <trkpt lat="49.47771" lon="4.57932">
        <ele>76.56</ele>
        <time>2021-07-26T12:05:05Z</time>
      </trkpt>
      <trkpt lat="49.47772" lon="4.57925">
        <ele>76.56</ele>
        <time>2021-07-26T12:05:06Z</time>
      </trkpt>
      <trkpt lat="49.47775" lon="4.57894">
        <ele>77.04</ele>
        <time>2021-07-26T12:05:10Z</time>
      </trkpt>
      <trkpt lat="49.47776" lon="4.57884">
        <ele>77.04</ele>
        <time>2021-07-26T12:05:11Z</time>
      </trkpt>
      <trkpt lat="49.47799" lon="4.57725">
        <ele>76.56</ele>
        <time>2021-07-26T12:05:26Z</time>
      </trkpt>
      <trkpt lat="49.47802" lon="4.57714">
        <ele>76.08</ele>
        <time>2021-07-26T12:05:27Z</time>
      </trkpt>
      <trkpt lat="49.47806" lon="4.57703">
        <ele>76.08</ele>
        <time>2021-07-26T12:05:28Z</time>
      </trkpt>
      <trkpt lat="49.4781" lon="4.57691">
        <ele>76.08</ele>
        <time>2021-07-26T12:05:29Z</time>
      </trkpt>
      <trkpt lat="49.47816" lon="4.57681">
        <ele>76.08</ele>
        <time>2021-07-26T12:05:30Z</time>
      </trkpt>
      <trkpt lat="49.47841" lon="4.57639">
        <ele>76.56</ele>
        <time>2021-07-26T12:05:34Z</time>
      </trkpt>
      <trkpt lat="49.47846" lon="4.57629">
        <ele>76.08</ele>
        <time>2021-07-26T12:05:35Z</time>
      </trkpt>
      <trkpt lat="49.47851" lon="4.57617">
        <ele>76.08</ele>
        <time>2021-07-26T12:05:36Z</time>
      </trkpt>
      <trkpt lat="49.47929" lon="4.5735">
        <ele>76.56</ele>
        <time>2021-07-26T12:05:55Z</time>
      </trkpt>
      <trkpt lat="49.47987" lon="4.57148">
        <ele>79.93</ele>
        <time>2021-07-26T12:06:08Z</time>
      </trkpt>
      <trkpt lat="49.48005" lon="4.5698">
        <ele>84.25</ele>
        <time>2021-07-26T12:06:17Z</time>
      </trkpt>
      <trkpt lat="49.47996" lon="4.56673">
        <ele>82.81</ele>
        <time>2021-07-26T12:06:32Z</time>
      </trkpt>
      <trkpt lat="49.47981" lon="4.56448">
        <ele>79.93</ele>
        <time>2021-07-26T12:06:43Z</time>
      </trkpt>
      <trkpt lat="49.47952" lon="4.56002">
        <ele>76.08</ele>
        <time>2021-07-26T12:06:59Z</time>
      </trkpt>
      <trkpt lat="49.47971" lon="4.55832">
        <ele>78.48</ele>
        <time>2021-07-26T12:07:05Z</time>
      </trkpt>
      <trkpt lat="49.48058" lon="4.5564">
        <ele>82.33</ele>
        <time>2021-07-26T12:07:13Z</time>
      </trkpt>
      <trkpt lat="49.48251" lon="4.55252">
        <ele>90.98</ele>
        <time>2021-07-26T12:07:30Z</time>
      </trkpt>
      <trkpt lat="49.48333" lon="4.55078">
        <ele>89.06</ele>
        <time>2021-07-26T12:07:38Z</time>
      </trkpt>
      <trkpt lat="49.48454" lon="4.5468">
        <ele>85.69</ele>
        <time>2021-07-26T12:07:53Z</time>
      </trkpt>
      <trkpt lat="49.48531" lon="4.54393">
        <ele>84.73</ele>
        <time>2021-07-26T12:08:04Z</time>
      </trkpt>
      <trkpt lat="49.48658" lon="4.54202">
        <ele>84.25</ele>
        <time>2021-07-26T12:08:13Z</time>
      </trkpt>
      <trkpt lat="49.48806" lon="4.5404">
        <ele>83.29</ele>
        <time>2021-07-26T12:08:25Z</time>
      </trkpt>
      <trkpt lat="49.48944" lon="4.53881">
        <ele>80.41</ele>
        <time>2021-07-26T12:08:37Z</time>
      </trkpt>
      <trkpt lat="49.48954" lon="4.53866">
        <ele>80.41</ele>
        <time>2021-07-26T12:08:38Z</time>
      </trkpt>
      <trkpt lat="49.48958" lon="4.53851">
        <ele>80.41</ele>
        <time>2021-07-26T12:08:39Z</time>
      </trkpt>
      <trkpt lat="49.48964" lon="4.53834">
        <ele>79.93</ele>
        <time>2021-07-26T12:08:40Z</time>
      </trkpt>
      <trkpt lat="49.48969" lon="4.53817">
        <ele>79.45</ele>
        <time>2021-07-26T12:08:41Z</time>
      </trkpt>
      <trkpt lat="49.48973" lon="4.538">
        <ele>78.97</ele>
        <time>2021-07-26T12:08:42Z</time>
      </trkpt>
      <trkpt lat="49.48978" lon="4.53616">
        <ele>79.93</ele>
        <time>2021-07-26T12:08:53Z</time>
      </trkpt>
      <trkpt lat="49.48976" lon="4.53568">
        <ele>79.45</ele>
        <time>2021-07-26T12:08:56Z</time>
      </trkpt>
      <trkpt lat="49.48977" lon="4.53551">
        <ele>79.45</ele>
        <time>2021-07-26T12:08:57Z</time>
      </trkpt>
      <trkpt lat="49.4898" lon="4.53535">
        <ele>78.97</ele>
        <time>2021-07-26T12:08:58Z</time>
      </trkpt>
      <trkpt lat="49.48982" lon="4.53518">
        <ele>79.45</ele>
        <time>2021-07-26T12:08:59Z</time>
      </trkpt>
      <trkpt lat="49.48986" lon="4.53501">
        <ele>79.93</ele>
        <time>2021-07-26T12:09:00Z</time>
      </trkpt>
      <trkpt lat="49.49015" lon="4.53408">
        <ele>80.41</ele>
        <time>2021-07-26T12:09:06Z</time>
      </trkpt>
      <trkpt lat="49.49019" lon="4.53394">
        <ele>79.45</ele>
        <time>2021-07-26T12:09:07Z</time>
      </trkpt>
      <trkpt lat="49.49021" lon="4.53378">
        <ele>79.45</ele>
        <time>2021-07-26T12:09:08Z</time>
      </trkpt>
      <trkpt lat="49.49025" lon="4.5333">
        <ele>79.45</ele>
        <time>2021-07-26T12:09:11Z</time>
      </trkpt>
      <trkpt lat="49.49027" lon="4.53314">
        <ele>79.45</ele>
        <time>2021-07-26T12:09:12Z</time>
      </trkpt>
      <trkpt lat="49.49031" lon="4.53297">
        <ele>78.97</ele>
        <time>2021-07-26T12:09:13Z</time>
      </trkpt>
      <trkpt lat="49.49036" lon="4.53281">
        <ele>78.97</ele>
        <time>2021-07-26T12:09:14Z</time>
      </trkpt>
      <trkpt lat="49.49041" lon="4.53264">
        <ele>78.97</ele>
        <time>2021-07-26T12:09:15Z</time>
      </trkpt>
      <trkpt lat="49.49114" lon="4.53051">
        <ele>78.48</ele>
        <time>2021-07-26T12:09:26Z</time>
      </trkpt>
      <trkpt lat="49.49117" lon="4.5303">
        <ele>78</ele>
        <time>2021-07-26T12:09:27Z</time>
      </trkpt>
      <trkpt lat="49.49117" lon="4.5303">
        <ele>78.48</ele>
        <time>2021-07-26T12:09:28Z</time>
      </trkpt>
      <trkpt lat="49.4912" lon="4.5301">
        <ele>78.48</ele>
        <time>2021-07-26T12:09:29Z</time>
      </trkpt>
      <trkpt lat="49.49119" lon="4.52988">
        <ele>78.97</ele>
        <time>2021-07-26T12:09:30Z</time>
      </trkpt>
      <trkpt lat="49.49119" lon="4.52966">
        <ele>78.97</ele>
        <time>2021-07-26T12:09:31Z</time>
      </trkpt>
      <trkpt lat="49.49114" lon="4.52862">
        <ele>76.56</ele>
        <time>2021-07-26T12:09:37Z</time>
      </trkpt>
      <trkpt lat="49.49105" lon="4.527">
        <ele>75.12</ele>
        <time>2021-07-26T12:09:47Z</time>
      </trkpt>
      <trkpt lat="49.49086" lon="4.52397">
        <ele>75.6</ele>
        <time>2021-07-26T12:09:59Z</time>
      </trkpt>
      <trkpt lat="49.49057" lon="4.5192">
        <ele>82.33</ele>
        <time>2021-07-26T12:10:15Z</time>
      </trkpt>
      <trkpt lat="49.49045" lon="4.51718">
        <ele>86.66</ele>
        <time>2021-07-26T12:10:23Z</time>
      </trkpt>
      <trkpt lat="49.49017" lon="4.51426">
        <ele>86.66</ele>
        <time>2021-07-26T12:10:34Z</time>
      </trkpt>
      <trkpt lat="49.48939" lon="4.50868">
        <ele>81.85</ele>
        <time>2021-07-26T12:10:53Z</time>
      </trkpt>
      <trkpt lat="49.48888" lon="4.50401">
        <ele>76.56</ele>
        <time>2021-07-26T12:11:08Z</time>
      </trkpt>
      <trkpt lat="49.48881" lon="4.50011">
        <ele>75.6</ele>
        <time>2021-07-26T12:11:21Z</time>
      </trkpt>
      <trkpt lat="49.48867" lon="4.49786">
        <ele>74.64</ele>
        <time>2021-07-26T12:11:30Z</time>
      </trkpt>
      <trkpt lat="49.48863" lon="4.49766">
        <ele>74.64</ele>
        <time>2021-07-26T12:11:31Z</time>
      </trkpt>
      <trkpt lat="49.48857" lon="4.49745">
        <ele>75.6</ele>
        <time>2021-07-26T12:11:32Z</time>
      </trkpt>
      <trkpt lat="49.48824" lon="4.49655">
        <ele>76.08</ele>
        <time>2021-07-26T12:11:37Z</time>
      </trkpt>
      <trkpt lat="49.48819" lon="4.49635">
        <ele>75.6</ele>
        <time>2021-07-26T12:11:38Z</time>
      </trkpt>
      <trkpt lat="49.48783" lon="4.49518">
        <ele>75.6</ele>
        <time>2021-07-26T12:11:44Z</time>
      </trkpt>
      <trkpt lat="49.48773" lon="4.49501">
        <ele>75.12</ele>
        <time>2021-07-26T12:11:45Z</time>
      </trkpt>
      <trkpt lat="49.48763" lon="4.49483">
        <ele>75.12</ele>
        <time>2021-07-26T12:11:46Z</time>
      </trkpt>
      <trkpt lat="49.48617" lon="4.49278">
        <ele>79.93</ele>
        <time>2021-07-26T12:11:58Z</time>
      </trkpt>
      <trkpt lat="49.48491" lon="4.48954">
        <ele>76.08</ele>
        <time>2021-07-26T12:12:12Z</time>
      </trkpt>
      <trkpt lat="49.48475" lon="4.48772">
        <ele>74.16</ele>
        <time>2021-07-26T12:12:20Z</time>
      </trkpt>
      <trkpt lat="49.48417" lon="4.4855">
        <ele>75.12</ele>
        <time>2021-07-26T12:12:28Z</time>
      </trkpt>
      <trkpt lat="49.48292" lon="4.48204">
        <ele>75.12</ele>
        <time>2021-07-26T12:12:45Z</time>
      </trkpt>
      <trkpt lat="49.48158" lon="4.47848">
        <ele>75.12</ele>
        <time>2021-07-26T12:13:02Z</time>
      </trkpt>
      <trkpt lat="49.4807" lon="4.47584">
        <ele>73.68</ele>
        <time>2021-07-26T12:13:13Z</time>
      </trkpt>
      <trkpt lat="49.48066" lon="4.47434">
        <ele>73.68</ele>
        <time>2021-07-26T12:13:20Z</time>
      </trkpt>
      <trkpt lat="49.48102" lon="4.47048">
        <ele>72.72</ele>
        <time>2021-07-26T12:13:35Z</time>
      </trkpt>
      <trkpt lat="49.48106" lon="4.46781">
        <ele>73.2</ele>
        <time>2021-07-26T12:13:45Z</time>
      </trkpt>
      <trkpt lat="49.48045" lon="4.46383">
        <ele>74.16</ele>
        <time>2021-07-26T12:14:00Z</time>
      </trkpt>
      <trkpt lat="49.47974" lon="4.46055">
        <ele>73.68</ele>
        <time>2021-07-26T12:14:13Z</time>
      </trkpt>
      <trkpt lat="49.47981" lon="4.45887">
        <ele>74.64</ele>
        <time>2021-07-26T12:14:20Z</time>
      </trkpt>
      <trkpt lat="49.48032" lon="4.45728">
        <ele>74.64</ele>
        <time>2021-07-26T12:14:29Z</time>
      </trkpt>
      <trkpt lat="49.48055" lon="4.45668">
        <ele>75.12</ele>
        <time>2021-07-26T12:14:34Z</time>
      </trkpt>
      <trkpt lat="49.4811" lon="4.45515">
        <ele>75.12</ele>
        <time>2021-07-26T12:14:48Z</time>
      </trkpt>
      <trkpt lat="49.48114" lon="4.455">
        <ele>75.12</ele>
        <time>2021-07-26T12:14:50Z</time>
      </trkpt>
      <trkpt lat="49.48115" lon="4.45493">
        <ele>75.12</ele>
        <time>2021-07-26T12:14:51Z</time>
      </trkpt>
      <trkpt lat="49.48117" lon="4.45487">
        <ele>75.12</ele>
        <time>2021-07-26T12:14:52Z</time>
      </trkpt>
      <trkpt lat="49.48127" lon="4.45479">
        <ele>75.12</ele>
        <time>2021-07-26T12:14:54Z</time>
      </trkpt>
      <trkpt lat="49.4813" lon="4.45473">
        <ele>75.6</ele>
        <time>2021-07-26T12:14:55Z</time>
      </trkpt>
      <trkpt lat="49.48132" lon="4.45452">
        <ele>76.08</ele>
        <time>2021-07-26T12:14:57Z</time>
      </trkpt>
      <trkpt lat="49.48136" lon="4.45445">
        <ele>76.08</ele>
        <time>2021-07-26T12:14:58Z</time>
      </trkpt>
      <trkpt lat="49.48186" lon="4.45333">
        <ele>78</ele>
        <time>2021-07-26T12:15:08Z</time>
      </trkpt>
      <trkpt lat="49.48263" lon="4.45168">
        <ele>78.97</ele>
        <time>2021-07-26T12:15:19Z</time>
      </trkpt>
      <trkpt lat="49.48281" lon="4.44998">
        <ele>77.04</ele>
        <time>2021-07-26T12:15:27Z</time>
      </trkpt>
      <trkpt lat="49.48297" lon="4.44706">
        <ele>75.6</ele>
        <time>2021-07-26T12:15:38Z</time>
      </trkpt>
      <trkpt lat="49.48407" lon="4.44133">
        <ele>77.52</ele>
        <time>2021-07-26T12:15:59Z</time>
      </trkpt>
      <trkpt lat="49.48427" lon="4.4395">
        <ele>77.52</ele>
        <time>2021-07-26T12:16:05Z</time>
      </trkpt>
      <trkpt lat="49.48427" lon="4.4395">
        <ele>77.52</ele>
        <time>2021-07-26T12:16:06Z</time>
      </trkpt>
      <trkpt lat="49.48427" lon="4.43923">
        <ele>78</ele>
        <time>2021-07-26T12:16:07Z</time>
      </trkpt>
      <trkpt lat="49.48422" lon="4.43896">
        <ele>78.48</ele>
        <time>2021-07-26T12:16:08Z</time>
      </trkpt>
      <trkpt lat="49.48417" lon="4.43869">
        <ele>79.45</ele>
        <time>2021-07-26T12:16:09Z</time>
      </trkpt>
      <trkpt lat="49.48409" lon="4.43844">
        <ele>79.93</ele>
        <time>2021-07-26T12:16:10Z</time>
      </trkpt>
      <trkpt lat="49.48399" lon="4.43822">
        <ele>79.45</ele>
        <time>2021-07-26T12:16:11Z</time>
      </trkpt>
      <trkpt lat="49.48389" lon="4.438">
        <ele>79.93</ele>
        <time>2021-07-26T12:16:12Z</time>
      </trkpt>
      <trkpt lat="49.4838" lon="4.43779">
        <ele>79.93</ele>
        <time>2021-07-26T12:16:13Z</time>
      </trkpt>
      <trkpt lat="49.48318" lon="4.43624">
        <ele>78.97</ele>
        <time>2021-07-26T12:16:21Z</time>
      </trkpt>
      <trkpt lat="49.48307" lon="4.43452">
        <ele>78.97</ele>
        <time>2021-07-26T12:16:30Z</time>
      </trkpt>
      <trkpt lat="49.48307" lon="4.43452">
        <ele>78.48</ele>
        <time>2021-07-26T12:16:31Z</time>
      </trkpt>
      <trkpt lat="49.48309" lon="4.43434">
        <ele>78</ele>
        <time>2021-07-26T12:16:32Z</time>
      </trkpt>
      <trkpt lat="49.48313" lon="4.43415">
        <ele>78</ele>
        <time>2021-07-26T12:16:33Z</time>
      </trkpt>
      <trkpt lat="49.48316" lon="4.43397">
        <ele>78</ele>
        <time>2021-07-26T12:16:34Z</time>
      </trkpt>
      <trkpt lat="49.4832" lon="4.43379">
        <ele>78.48</ele>
        <time>2021-07-26T12:16:35Z</time>
      </trkpt>
      <trkpt lat="49.48372" lon="4.43193">
        <ele>80.41</ele>
        <time>2021-07-26T12:16:45Z</time>
      </trkpt>
      <trkpt lat="49.48397" lon="4.43041">
        <ele>79.93</ele>
        <time>2021-07-26T12:16:52Z</time>
      </trkpt>
      <trkpt lat="49.48399" lon="4.43019">
        <ele>80.89</ele>
        <time>2021-07-26T12:16:53Z</time>
      </trkpt>
      <trkpt lat="49.48398" lon="4.42997">
        <ele>81.85</ele>
        <time>2021-07-26T12:16:54Z</time>
      </trkpt>
      <trkpt lat="49.48397" lon="4.42975">
        <ele>82.33</ele>
        <time>2021-07-26T12:16:55Z</time>
      </trkpt>
      <trkpt lat="49.48395" lon="4.42955">
        <ele>82.33</ele>
        <time>2021-07-26T12:16:56Z</time>
      </trkpt>
      <trkpt lat="49.48392" lon="4.42935">
        <ele>82.81</ele>
        <time>2021-07-26T12:16:57Z</time>
      </trkpt>
      <trkpt lat="49.48378" lon="4.42786">
        <ele>82.81</ele>
        <time>2021-07-26T12:17:06Z</time>
      </trkpt>
      <trkpt lat="49.48399" lon="4.42532">
        <ele>78.97</ele>
        <time>2021-07-26T12:17:20Z</time>
      </trkpt>
      <trkpt lat="49.48397" lon="4.42517">
        <ele>78.48</ele>
        <time>2021-07-26T12:17:21Z</time>
      </trkpt>
      <trkpt lat="49.48396" lon="4.425">
        <ele>78.48</ele>
        <time>2021-07-26T12:17:22Z</time>
      </trkpt>
      <trkpt lat="49.4839" lon="4.42453">
        <ele>78.97</ele>
        <time>2021-07-26T12:17:25Z</time>
      </trkpt>
      <trkpt lat="49.48389" lon="4.42437">
        <ele>78.97</ele>
        <time>2021-07-26T12:17:26Z</time>
      </trkpt>
      <trkpt lat="49.48389" lon="4.42421">
        <ele>79.45</ele>
        <time>2021-07-26T12:17:27Z</time>
      </trkpt>
      <trkpt lat="49.48392" lon="4.42325">
        <ele>81.37</ele>
        <time>2021-07-26T12:17:33Z</time>
      </trkpt>
      <trkpt lat="49.48391" lon="4.42308">
        <ele>81.37</ele>
        <time>2021-07-26T12:17:34Z</time>
      </trkpt>
      <trkpt lat="49.48388" lon="4.42291">
        <ele>81.85</ele>
        <time>2021-07-26T12:17:35Z</time>
      </trkpt>
      <trkpt lat="49.48368" lon="4.42204">
        <ele>85.69</ele>
        <time>2021-07-26T12:17:40Z</time>
      </trkpt>
      <trkpt lat="49.48364" lon="4.42188">
        <ele>86.18</ele>
        <time>2021-07-26T12:17:41Z</time>
      </trkpt>
      <trkpt lat="49.48363" lon="4.42172">
        <ele>87.14</ele>
        <time>2021-07-26T12:17:42Z</time>
      </trkpt>
      <trkpt lat="49.48365" lon="4.42156">
        <ele>87.62</ele>
        <time>2021-07-26T12:17:43Z</time>
      </trkpt>
      <trkpt lat="49.48369" lon="4.42121">
        <ele>87.62</ele>
        <time>2021-07-26T12:17:44Z</time>
      </trkpt>
      <trkpt lat="49.48392" lon="4.41974">
        <ele>92.42</ele>
        <time>2021-07-26T12:17:52Z</time>
      </trkpt>
      <trkpt lat="49.48434" lon="4.41689">
        <ele>93.87</ele>
        <time>2021-07-26T12:18:03Z</time>
      </trkpt>
      <trkpt lat="49.48444" lon="4.41312">
        <ele>81.85</ele>
        <time>2021-07-26T12:18:17Z</time>
      </trkpt>
      <trkpt lat="49.48458" lon="4.40968">
        <ele>79.45</ele>
        <time>2021-07-26T12:18:29Z</time>
      </trkpt>
      <trkpt lat="49.48471" lon="4.40378">
        <ele>79.93</ele>
        <time>2021-07-26T12:18:49Z</time>
      </trkpt>
      <trkpt lat="49.48464" lon="4.39966">
        <ele>78.48</ele>
        <time>2021-07-26T12:19:03Z</time>
      </trkpt>
      <trkpt lat="49.48434" lon="4.39417">
        <ele>80.41</ele>
        <time>2021-07-26T12:19:22Z</time>
      </trkpt>
      <trkpt lat="49.48426" lon="4.39335">
        <ele>82.33</ele>
        <time>2021-07-26T12:19:25Z</time>
      </trkpt>
      <trkpt lat="49.48421" lon="4.39309">
        <ele>82.81</ele>
        <time>2021-07-26T12:19:26Z</time>
      </trkpt>
      <trkpt lat="49.48317" lon="4.38975">
        <ele>78.97</ele>
        <time>2021-07-26T12:19:40Z</time>
      </trkpt>
      <trkpt lat="49.48284" lon="4.38858">
        <ele>73.68</ele>
        <time>2021-07-26T12:19:47Z</time>
      </trkpt>
      <trkpt lat="49.48279" lon="4.38836">
        <ele>73.68</ele>
        <time>2021-07-26T12:19:49Z</time>
      </trkpt>
      <trkpt lat="49.48277" lon="4.38828">
        <ele>73.68</ele>
        <time>2021-07-26T12:19:50Z</time>
      </trkpt>
      <trkpt lat="49.48276" lon="4.38823">
        <ele>73.68</ele>
        <time>2021-07-26T12:19:51Z</time>
      </trkpt>
      <trkpt lat="49.48275" lon="4.38818">
        <ele>74.16</ele>
        <time>2021-07-26T12:20:01Z</time>
      </trkpt>
      <trkpt lat="49.48275" lon="4.38818">
        <ele>74.16</ele>
        <time>2021-07-26T12:20:05Z</time>
      </trkpt>
      <trkpt lat="49.48281" lon="4.38804">
        <ele>74.16</ele>
        <time>2021-07-26T12:20:06Z</time>
      </trkpt>
      <trkpt lat="49.48284" lon="4.38802">
        <ele>74.16</ele>
        <time>2021-07-26T12:20:07Z</time>
      </trkpt>
      <trkpt lat="49.48288" lon="4.388">
        <ele>73.68</ele>
        <time>2021-07-26T12:20:08Z</time>
      </trkpt>
      <trkpt lat="49.48293" lon="4.38798">
        <ele>73.68</ele>
        <time>2021-07-26T12:20:09Z</time>
      </trkpt>
      <trkpt lat="49.48336" lon="4.38775">
        <ele>72.24</ele>
        <time>2021-07-26T12:20:15Z</time>
      </trkpt>
      <trkpt lat="49.48345" lon="4.38768">
        <ele>72.72</ele>
        <time>2021-07-26T12:20:16Z</time>
      </trkpt>
      <trkpt lat="49.48353" lon="4.38759">
        <ele>73.2</ele>
        <time>2021-07-26T12:20:17Z</time>
      </trkpt>
      <trkpt lat="49.48361" lon="4.38747">
        <ele>72.72</ele>
        <time>2021-07-26T12:20:18Z</time>
      </trkpt>
      <trkpt lat="49.48369" lon="4.38734">
        <ele>72.24</ele>
        <time>2021-07-26T12:20:19Z</time>
      </trkpt>
      <trkpt lat="49.48376" lon="4.38721">
        <ele>71.76</ele>
        <time>2021-07-26T12:20:20Z</time>
      </trkpt>
      <trkpt lat="49.48381" lon="4.38703">
        <ele>72.24</ele>
        <time>2021-07-26T12:20:21Z</time>
      </trkpt>
      <trkpt lat="49.48391" lon="4.38666">
        <ele>72.24</ele>
        <time>2021-07-26T12:20:22Z</time>
      </trkpt>
      <trkpt lat="49.48441" lon="4.38446">
        <ele>78</ele>
        <time>2021-07-26T12:20:34Z</time>
      </trkpt>
      <trkpt lat="49.48493" lon="4.38207">
        <ele>88.1</ele>
        <time>2021-07-26T12:20:46Z</time>
      </trkpt>
      <trkpt lat="49.48599" lon="4.37724">
        <ele>102.52</ele>
        <time>2021-07-26T12:21:06Z</time>
      </trkpt>
      <trkpt lat="49.48681" lon="4.37462">
        <ele>105.88</ele>
        <time>2021-07-26T12:21:17Z</time>
      </trkpt>
      <trkpt lat="49.48787" lon="4.37342">
        <ele>99.15</ele>
        <time>2021-07-26T12:21:24Z</time>
      </trkpt>
      <trkpt lat="49.49046" lon="4.37109">
        <ele>92.9</ele>
        <time>2021-07-26T12:21:40Z</time>
      </trkpt>
      <trkpt lat="49.4919" lon="4.3698">
        <ele>89.54</ele>
        <time>2021-07-26T12:21:54Z</time>
      </trkpt>
      <trkpt lat="49.49398" lon="4.36793">
        <ele>82.81</ele>
        <time>2021-07-26T12:22:15Z</time>
      </trkpt>
      <trkpt lat="49.49592" lon="4.3662">
        <ele>78</ele>
        <time>2021-07-26T12:22:35Z</time>
      </trkpt>
      <trkpt lat="49.4978" lon="4.36454">
        <ele>72.24</ele>
        <time>2021-07-26T12:22:54Z</time>
      </trkpt>
      <trkpt lat="49.49976" lon="4.36257">
        <ele>69.35</ele>
        <time>2021-07-26T12:23:13Z</time>
      </trkpt>
      <trkpt lat="49.49983" lon="4.36246">
        <ele>68.87</ele>
        <time>2021-07-26T12:23:14Z</time>
      </trkpt>
      <trkpt lat="49.50069" lon="4.36136">
        <ele>67.91</ele>
        <time>2021-07-26T12:23:26Z</time>
      </trkpt>
      <trkpt lat="49.50159" lon="4.36013">
        <ele>70.31</ele>
        <time>2021-07-26T12:23:39Z</time>
      </trkpt>
      <trkpt lat="49.50194" lon="4.35968">
        <ele>71.27</ele>
        <time>2021-07-26T12:23:50Z</time>
      </trkpt>
      <trkpt lat="49.50198" lon="4.35968">
        <ele>71.27</ele>
        <time>2021-07-26T12:23:51Z</time>
      </trkpt>
      <trkpt lat="49.50202" lon="4.35963">
        <ele>71.27</ele>
        <time>2021-07-26T12:23:52Z</time>
      </trkpt>
      <trkpt lat="49.50204" lon="4.3596">
        <ele>71.27</ele>
        <time>2021-07-26T12:23:53Z</time>
      </trkpt>
      <trkpt lat="49.50201" lon="4.35953">
        <ele>71.27</ele>
        <time>2021-07-26T12:23:54Z</time>
      </trkpt>
      <trkpt lat="49.502" lon="4.35946">
        <ele>70.79</ele>
        <time>2021-07-26T12:23:55Z</time>
      </trkpt>
      <trkpt lat="49.50199" lon="4.35945">
        <ele>70.79</ele>
        <time>2021-07-26T12:23:56Z</time>
      </trkpt>
      <trkpt lat="49.50194" lon="4.35946">
        <ele>70.31</ele>
        <time>2021-07-26T12:23:57Z</time>
      </trkpt>
      <trkpt lat="49.50185" lon="4.35943">
        <ele>70.31</ele>
        <time>2021-07-26T12:23:58Z</time>
      </trkpt>
      <trkpt lat="49.50176" lon="4.35933">
        <ele>70.31</ele>
        <time>2021-07-26T12:23:59Z</time>
      </trkpt>
      <trkpt lat="49.50176" lon="4.35933">
        <ele>70.79</ele>
        <time>2021-07-26T12:24:00Z</time>
      </trkpt>
      <trkpt lat="49.50091" lon="4.35851">
        <ele>70.79</ele>
        <time>2021-07-26T12:24:12Z</time>
      </trkpt>
      <trkpt lat="49.49964" lon="4.3574">
        <ele>71.27</ele>
        <time>2021-07-26T12:24:26Z</time>
      </trkpt>
      <trkpt lat="49.49821" lon="4.35613">
        <ele>72.24</ele>
        <time>2021-07-26T12:24:39Z</time>
      </trkpt>
      <trkpt lat="49.49763" lon="4.35553">
        <ele>73.2</ele>
        <time>2021-07-26T12:24:46Z</time>
      </trkpt>
      <trkpt lat="49.49763" lon="4.35553">
        <ele>73.2</ele>
        <time>2021-07-26T12:24:47Z</time>
      </trkpt>
      <trkpt lat="49.4976" lon="4.35547">
        <ele>73.2</ele>
        <time>2021-07-26T12:24:48Z</time>
      </trkpt>
      <trkpt lat="49.49756" lon="4.35539">
        <ele>72.72</ele>
        <time>2021-07-26T12:24:49Z</time>
      </trkpt>
      <trkpt lat="49.49753" lon="4.35532">
        <ele>72.72</ele>
        <time>2021-07-26T12:24:50Z</time>
      </trkpt>
      <trkpt lat="49.49752" lon="4.35522">
        <ele>72.24</ele>
        <time>2021-07-26T12:24:51Z</time>
      </trkpt>
      <trkpt lat="49.49752" lon="4.35512">
        <ele>71.76</ele>
        <time>2021-07-26T12:24:52Z</time>
      </trkpt>
      <trkpt lat="49.49751" lon="4.35502">
        <ele>71.76</ele>
        <time>2021-07-26T12:24:53Z</time>
      </trkpt>
      <trkpt lat="49.49751" lon="4.35493">
        <ele>71.76</ele>
        <time>2021-07-26T12:24:54Z</time>
      </trkpt>
      <trkpt lat="49.49753" lon="4.35485">
        <ele>71.76</ele>
        <time>2021-07-26T12:24:55Z</time>
      </trkpt>
      <trkpt lat="49.49754" lon="4.35477">
        <ele>72.24</ele>
        <time>2021-07-26T12:24:56Z</time>
      </trkpt>
      <trkpt lat="49.49756" lon="4.35469">
        <ele>72.24</ele>
        <time>2021-07-26T12:24:57Z</time>
      </trkpt>
      <trkpt lat="49.49759" lon="4.3546">
        <ele>71.76</ele>
        <time>2021-07-26T12:24:58Z</time>
      </trkpt>
      <trkpt lat="49.49765" lon="4.35455">
        <ele>71.76</ele>
        <time>2021-07-26T12:24:59Z</time>
      </trkpt>
      <trkpt lat="49.49772" lon="4.35449">
        <ele>71.27</ele>
        <time>2021-07-26T12:25:00Z</time>
      </trkpt>
      <trkpt lat="49.49779" lon="4.35441">
        <ele>71.27</ele>
        <time>2021-07-26T12:25:01Z</time>
      </trkpt>
      <trkpt lat="49.49785" lon="4.35419">
        <ele>71.27</ele>
        <time>2021-07-26T12:25:02Z</time>
      </trkpt>
      <trkpt lat="49.49785" lon="4.35419">
        <ele>71.27</ele>
        <time>2021-07-26T12:25:03Z</time>
      </trkpt>
      <trkpt lat="49.49787" lon="4.35407">
        <ele>70.79</ele>
        <time>2021-07-26T12:25:04Z</time>
      </trkpt>
      <trkpt lat="49.49787" lon="4.35395">
        <ele>70.79</ele>
        <time>2021-07-26T12:25:05Z</time>
      </trkpt>
      <trkpt lat="49.49786" lon="4.35384">
        <ele>70.79</ele>
        <time>2021-07-26T12:25:06Z</time>
      </trkpt>
      <trkpt lat="49.49778" lon="4.35359">
        <ele>70.31</ele>
        <time>2021-07-26T12:25:07Z</time>
      </trkpt>
      <trkpt lat="49.49778" lon="4.35359">
        <ele>70.31</ele>
        <time>2021-07-26T12:25:08Z</time>
      </trkpt>
      <trkpt lat="49.49771" lon="4.35352">
        <ele>69.83</ele>
        <time>2021-07-26T12:25:09Z</time>
      </trkpt>
      <trkpt lat="49.49762" lon="4.35346">
        <ele>69.83</ele>
        <time>2021-07-26T12:25:10Z</time>
      </trkpt>
      <trkpt lat="49.49753" lon="4.35344">
        <ele>70.31</ele>
        <time>2021-07-26T12:25:11Z</time>
      </trkpt>
      <trkpt lat="49.49744" lon="4.35343">
        <ele>70.79</ele>
        <time>2021-07-26T12:25:12Z</time>
      </trkpt>
      <trkpt lat="49.49734" lon="4.35343">
        <ele>71.76</ele>
        <time>2021-07-26T12:25:13Z</time>
      </trkpt>
      <trkpt lat="49.49725" lon="4.35349">
        <ele>71.27</ele>
        <time>2021-07-26T12:25:14Z</time>
      </trkpt>
      <trkpt lat="49.49717" lon="4.35355">
        <ele>71.76</ele>
        <time>2021-07-26T12:25:15Z</time>
      </trkpt>
      <trkpt lat="49.49709" lon="4.35359">
        <ele>72.24</ele>
        <time>2021-07-26T12:25:16Z</time>
      </trkpt>
      <trkpt lat="49.4969" lon="4.35359">
        <ele>72.24</ele>
        <time>2021-07-26T12:25:17Z</time>
      </trkpt>
      <trkpt lat="49.49588" lon="4.3533">
        <ele>72.72</ele>
        <time>2021-07-26T12:25:26Z</time>
      </trkpt>
      <trkpt lat="49.49443" lon="4.3525">
        <ele>80.41</ele>
        <time>2021-07-26T12:25:36Z</time>
      </trkpt>
      <trkpt lat="49.4924" lon="4.3509">
        <ele>90.5</ele>
        <time>2021-07-26T12:25:48Z</time>
      </trkpt>
      <trkpt lat="49.48955" lon="4.34821">
        <ele>104.44</ele>
        <time>2021-07-26T12:26:05Z</time>
      </trkpt>
      <trkpt lat="49.4873" lon="4.34513">
        <ele>110.69</ele>
        <time>2021-07-26T12:26:19Z</time>
      </trkpt>
      <trkpt lat="49.48437" lon="4.34102">
        <ele>121.74</ele>
        <time>2021-07-26T12:26:36Z</time>
      </trkpt>
      <trkpt lat="49.48138" lon="4.33683">
        <ele>135.68</ele>
        <time>2021-07-26T12:26:53Z</time>
      </trkpt>
      <trkpt lat="49.4775" lon="4.33139">
        <ele>142.89</ele>
        <time>2021-07-26T12:27:14Z</time>
      </trkpt>
      <trkpt lat="49.47454" lon="4.3272">
        <ele>140.01</ele>
        <time>2021-07-26T12:27:29Z</time>
      </trkpt>
      <trkpt lat="49.47201" lon="4.32325">
        <ele>141.45</ele>
        <time>2021-07-26T12:27:44Z</time>
      </trkpt>
      <trkpt lat="49.46891" lon="4.31872">
        <ele>140.49</ele>
        <time>2021-07-26T12:28:02Z</time>
      </trkpt>
      <trkpt lat="49.46539" lon="4.31378">
        <ele>130.88</ele>
        <time>2021-07-26T12:28:21Z</time>
      </trkpt>
      <trkpt lat="49.46243" lon="4.30983">
        <ele>135.68</ele>
        <time>2021-07-26T12:28:37Z</time>
      </trkpt>
      <trkpt lat="49.45764" lon="4.30478">
        <ele>124.15</ele>
        <time>2021-07-26T12:29:00Z</time>
      </trkpt>
      <trkpt lat="49.4533" lon="4.30001">
        <ele>119.82</ele>
        <time>2021-07-26T12:29:21Z</time>
      </trkpt>
      <trkpt lat="49.45099" lon="4.2977">
        <ele>115.98</ele>
        <time>2021-07-26T12:29:32Z</time>
      </trkpt>
      <trkpt lat="49.44868" lon="4.29521">
        <ele>110.69</ele>
        <time>2021-07-26T12:29:43Z</time>
      </trkpt>
      <trkpt lat="49.44723" lon="4.29248">
        <ele>109.25</ele>
        <time>2021-07-26T12:29:51Z</time>
      </trkpt>
      <trkpt lat="49.44646" lon="4.2901">
        <ele>111.65</ele>
        <time>2021-07-26T12:29:59Z</time>
      </trkpt>
      <trkpt lat="49.44517" lon="4.28552">
        <ele>115.01</ele>
        <time>2021-07-26T12:30:13Z</time>
      </trkpt>
      <trkpt lat="49.44404" lon="4.28313">
        <ele>113.57</ele>
        <time>2021-07-26T12:30:21Z</time>
      </trkpt>
      <trkpt lat="49.44241" lon="4.28123">
        <ele>110.69</ele>
        <time>2021-07-26T12:30:29Z</time>
      </trkpt>
      <trkpt lat="49.44068" lon="4.28018">
        <ele>106.36</ele>
        <time>2021-07-26T12:30:36Z</time>
      </trkpt>
      <trkpt lat="49.43847" lon="4.27978">
        <ele>100.6</ele>
        <time>2021-07-26T12:30:44Z</time>
      </trkpt>
      <trkpt lat="49.43445" lon="4.27945">
        <ele>98.67</ele>
        <time>2021-07-26T12:30:59Z</time>
      </trkpt>
      <trkpt lat="49.43279" lon="4.27867">
        <ele>101.56</ele>
        <time>2021-07-26T12:31:06Z</time>
      </trkpt>
      <trkpt lat="49.43092" lon="4.27684">
        <ele>104.44</ele>
        <time>2021-07-26T12:31:15Z</time>
      </trkpt>
      <trkpt lat="49.42686" lon="4.27259">
        <ele>105.88</ele>
        <time>2021-07-26T12:31:36Z</time>
      </trkpt>
      <trkpt lat="49.42292" lon="4.26849">
        <ele>95.79</ele>
        <time>2021-07-26T12:31:58Z</time>
      </trkpt>
      <trkpt lat="49.42118" lon="4.26665">
        <ele>90.5</ele>
        <time>2021-07-26T12:32:09Z</time>
      </trkpt>
      <trkpt lat="49.42038" lon="4.26549">
        <ele>93.39</ele>
        <time>2021-07-26T12:32:17Z</time>
      </trkpt>
      <trkpt lat="49.42024" lon="4.26528">
        <ele>93.87</ele>
        <time>2021-07-26T12:32:23Z</time>
      </trkpt>
      <trkpt lat="49.42018" lon="4.2652">
        <ele>92.9</ele>
        <time>2021-07-26T12:32:28Z</time>
      </trkpt>
      <trkpt lat="49.42017" lon="4.26512">
        <ele>92.9</ele>
        <time>2021-07-26T12:32:29Z</time>
      </trkpt>
      <trkpt lat="49.42019" lon="4.26507">
        <ele>92.9</ele>
        <time>2021-07-26T12:32:30Z</time>
      </trkpt>
      <trkpt lat="49.42054" lon="4.26421">
        <ele>91.46</ele>
        <time>2021-07-26T12:32:38Z</time>
      </trkpt>
      <trkpt lat="49.42079" lon="4.2625">
        <ele>90.02</ele>
        <time>2021-07-26T12:32:46Z</time>
      </trkpt>
      <trkpt lat="49.42086" lon="4.25947">
        <ele>88.58</ele>
        <time>2021-07-26T12:32:57Z</time>
      </trkpt>
      <trkpt lat="49.42088" lon="4.25416">
        <ele>87.62</ele>
        <time>2021-07-26T12:33:14Z</time>
      </trkpt>
      <trkpt lat="49.42073" lon="4.24835">
        <ele>86.18</ele>
        <time>2021-07-26T12:33:32Z</time>
      </trkpt>
      <trkpt lat="49.41988" lon="4.24329">
        <ele>84.25</ele>
        <time>2021-07-26T12:33:48Z</time>
      </trkpt>
      <trkpt lat="49.41949" lon="4.23979">
        <ele>86.66</ele>
        <time>2021-07-26T12:33:59Z</time>
      </trkpt>
      <trkpt lat="49.41945" lon="4.23578">
        <ele>86.18</ele>
        <time>2021-07-26T12:34:12Z</time>
      </trkpt>
      <trkpt lat="49.41939" lon="4.23267">
        <ele>85.21</ele>
        <time>2021-07-26T12:34:22Z</time>
      </trkpt>
      <trkpt lat="49.41979" lon="4.22881">
        <ele>84.73</ele>
        <time>2021-07-26T12:34:34Z</time>
      </trkpt>
      <trkpt lat="49.42043" lon="4.22357">
        <ele>86.18</ele>
        <time>2021-07-26T12:34:51Z</time>
      </trkpt>
      <trkpt lat="49.42057" lon="4.221">
        <ele>86.66</ele>
        <time>2021-07-26T12:35:00Z</time>
      </trkpt>
      <trkpt lat="49.42007" lon="4.21748">
        <ele>79.93</ele>
        <time>2021-07-26T12:35:13Z</time>
      </trkpt>
      <trkpt lat="49.42006" lon="4.21507">
        <ele>75.6</ele>
        <time>2021-07-26T12:35:22Z</time>
      </trkpt>
      <trkpt lat="49.42044" lon="4.21315">
        <ele>79.45</ele>
        <time>2021-07-26T12:35:31Z</time>
      </trkpt>
      <trkpt lat="49.42108" lon="4.20905">
        <ele>80.41</ele>
        <time>2021-07-26T12:35:46Z</time>
      </trkpt>
      <trkpt lat="49.42146" lon="4.20588">
        <ele>82.33</ele>
        <time>2021-07-26T12:35:58Z</time>
      </trkpt>
      <trkpt lat="49.42122" lon="4.20318">
        <ele>80.89</ele>
        <time>2021-07-26T12:36:07Z</time>
      </trkpt>
      <trkpt lat="49.42115" lon="4.2018">
        <ele>79.93</ele>
        <time>2021-07-26T12:36:11Z</time>
      </trkpt>
      <trkpt lat="49.42115" lon="4.2018">
        <ele>78.97</ele>
        <time>2021-07-26T12:36:12Z</time>
      </trkpt>
      <trkpt lat="49.42118" lon="4.20152">
        <ele>77.52</ele>
        <time>2021-07-26T12:36:13Z</time>
      </trkpt>
      <trkpt lat="49.42218" lon="4.19782">
        <ele>76.56</ele>
        <time>2021-07-26T12:36:26Z</time>
      </trkpt>
      <trkpt lat="49.42333" lon="4.19466">
        <ele>78.48</ele>
        <time>2021-07-26T12:36:39Z</time>
      </trkpt>
      <trkpt lat="49.42451" lon="4.19037">
        <ele>79.93</ele>
        <time>2021-07-26T12:36:54Z</time>
      </trkpt>
      <trkpt lat="49.42497" lon="4.18844">
        <ele>78</ele>
        <time>2021-07-26T12:37:01Z</time>
      </trkpt>
      <trkpt lat="49.42498" lon="4.18816">
        <ele>79.45</ele>
        <time>2021-07-26T12:37:02Z</time>
      </trkpt>
      <trkpt lat="49.42498" lon="4.18788">
        <ele>79.93</ele>
        <time>2021-07-26T12:37:03Z</time>
      </trkpt>
      <trkpt lat="49.42486" lon="4.18616">
        <ele>78.97</ele>
        <time>2021-07-26T12:37:09Z</time>
      </trkpt>
      <trkpt lat="49.42486" lon="4.1859">
        <ele>78.48</ele>
        <time>2021-07-26T12:37:10Z</time>
      </trkpt>
      <trkpt lat="49.42488" lon="4.18562">
        <ele>78</ele>
        <time>2021-07-26T12:37:11Z</time>
      </trkpt>
      <trkpt lat="49.42491" lon="4.18535">
        <ele>77.04</ele>
        <time>2021-07-26T12:37:12Z</time>
      </trkpt>
      <trkpt lat="49.42497" lon="4.18507">
        <ele>76.56</ele>
        <time>2021-07-26T12:37:13Z</time>
      </trkpt>
      <trkpt lat="49.42582" lon="4.18119">
        <ele>75.6</ele>
        <time>2021-07-26T12:37:27Z</time>
      </trkpt>
      <trkpt lat="49.42656" lon="4.17895">
        <ele>73.2</ele>
        <time>2021-07-26T12:37:38Z</time>
      </trkpt>
      <trkpt lat="49.42686" lon="4.17797">
        <ele>73.68</ele>
        <time>2021-07-26T12:37:46Z</time>
      </trkpt>
      <trkpt lat="49.42706" lon="4.17753">
        <ele>72.24</ele>
        <time>2021-07-26T12:37:55Z</time>
      </trkpt>
      <trkpt lat="49.42705" lon="4.17747">
        <ele>72.72</ele>
        <time>2021-07-26T12:37:56Z</time>
      </trkpt>
      <trkpt lat="49.42704" lon="4.17742">
        <ele>72.72</ele>
        <time>2021-07-26T12:37:57Z</time>
      </trkpt>
      <trkpt lat="49.42702" lon="4.17736">
        <ele>72.24</ele>
        <time>2021-07-26T12:37:58Z</time>
      </trkpt>
      <trkpt lat="49.42698" lon="4.17726">
        <ele>72.24</ele>
        <time>2021-07-26T12:37:59Z</time>
      </trkpt>
      <trkpt lat="49.42698" lon="4.17726">
        <ele>72.24</ele>
        <time>2021-07-26T12:38:00Z</time>
      </trkpt>
      <trkpt lat="49.42693" lon="4.17724">
        <ele>72.24</ele>
        <time>2021-07-26T12:38:01Z</time>
      </trkpt>
      <trkpt lat="49.42687" lon="4.17721">
        <ele>72.24</ele>
        <time>2021-07-26T12:38:02Z</time>
      </trkpt>
      <trkpt lat="49.4268" lon="4.17718">
        <ele>72.24</ele>
        <time>2021-07-26T12:38:03Z</time>
      </trkpt>
      <trkpt lat="49.42649" lon="4.177">
        <ele>72.72</ele>
        <time>2021-07-26T12:38:07Z</time>
      </trkpt>
      <trkpt lat="49.42631" lon="4.17686">
        <ele>72.72</ele>
        <time>2021-07-26T12:38:08Z</time>
      </trkpt>
      <trkpt lat="49.42631" lon="4.17686">
        <ele>72.72</ele>
        <time>2021-07-26T12:38:09Z</time>
      </trkpt>
      <trkpt lat="49.42616" lon="4.1766">
        <ele>72.24</ele>
        <time>2021-07-26T12:38:10Z</time>
      </trkpt>
      <trkpt lat="49.42616" lon="4.1766">
        <ele>72.24</ele>
        <time>2021-07-26T12:38:11Z</time>
      </trkpt>
      <trkpt lat="49.42609" lon="4.17647">
        <ele>72.72</ele>
        <time>2021-07-26T12:38:12Z</time>
      </trkpt>
      <trkpt lat="49.42561" lon="4.17576">
        <ele>71.76</ele>
        <time>2021-07-26T12:38:17Z</time>
      </trkpt>
      <trkpt lat="49.42561" lon="4.17576">
        <ele>70.79</ele>
        <time>2021-07-26T12:38:18Z</time>
      </trkpt>
      <trkpt lat="49.42423" lon="4.17456">
        <ele>71.27</ele>
        <time>2021-07-26T12:38:32Z</time>
      </trkpt>
      <trkpt lat="49.42415" lon="4.1745">
        <ele>71.27</ele>
        <time>2021-07-26T12:38:33Z</time>
      </trkpt>
      <trkpt lat="49.42406" lon="4.17444">
        <ele>70.79</ele>
        <time>2021-07-26T12:38:34Z</time>
      </trkpt>
      <trkpt lat="49.42392" lon="4.17424">
        <ele>70.31</ele>
        <time>2021-07-26T12:38:35Z</time>
      </trkpt>
      <trkpt lat="49.42392" lon="4.17424">
        <ele>69.35</ele>
        <time>2021-07-26T12:38:36Z</time>
      </trkpt>
      <trkpt lat="49.42388" lon="4.17407">
        <ele>68.87</ele>
        <time>2021-07-26T12:38:37Z</time>
      </trkpt>
      <trkpt lat="49.42384" lon="4.17391">
        <ele>68.87</ele>
        <time>2021-07-26T12:38:38Z</time>
      </trkpt>
      <trkpt lat="49.42381" lon="4.17363">
        <ele>68.87</ele>
        <time>2021-07-26T12:38:39Z</time>
      </trkpt>
      <trkpt lat="49.42381" lon="4.17363">
        <ele>68.87</ele>
        <time>2021-07-26T12:38:40Z</time>
      </trkpt>
      <trkpt lat="49.42381" lon="4.17349">
        <ele>68.39</ele>
        <time>2021-07-26T12:38:41Z</time>
      </trkpt>
      <trkpt lat="49.42406" lon="4.1724">
        <ele>67.43</ele>
        <time>2021-07-26T12:38:49Z</time>
      </trkpt>
      <trkpt lat="49.4241" lon="4.17224">
        <ele>66.47</ele>
        <time>2021-07-26T12:38:50Z</time>
      </trkpt>
      <trkpt lat="49.42417" lon="4.17211">
        <ele>65.51</ele>
        <time>2021-07-26T12:38:51Z</time>
      </trkpt>
      <trkpt lat="49.42424" lon="4.17198">
        <ele>64.55</ele>
        <time>2021-07-26T12:38:52Z</time>
      </trkpt>
      <trkpt lat="49.42432" lon="4.17183">
        <ele>65.03</ele>
        <time>2021-07-26T12:38:53Z</time>
      </trkpt>
      <trkpt lat="49.42441" lon="4.17173">
        <ele>65.51</ele>
        <time>2021-07-26T12:38:54Z</time>
      </trkpt>
      <trkpt lat="49.42477" lon="4.17135">
        <ele>67.91</ele>
        <time>2021-07-26T12:38:58Z</time>
      </trkpt>
      <trkpt lat="49.42485" lon="4.17122">
        <ele>67.91</ele>
        <time>2021-07-26T12:38:59Z</time>
      </trkpt>
      <trkpt lat="49.42491" lon="4.17107">
        <ele>67.91</ele>
        <time>2021-07-26T12:39:00Z</time>
      </trkpt>
      <trkpt lat="49.42498" lon="4.17089">
        <ele>68.39</ele>
        <time>2021-07-26T12:39:01Z</time>
      </trkpt>
      <trkpt lat="49.42505" lon="4.17071">
        <ele>68.39</ele>
        <time>2021-07-26T12:39:02Z</time>
      </trkpt>
      <trkpt lat="49.4251" lon="4.17048">
        <ele>68.87</ele>
        <time>2021-07-26T12:39:03Z</time>
      </trkpt>
      <trkpt lat="49.42574" lon="4.16731">
        <ele>68.39</ele>
        <time>2021-07-26T12:39:16Z</time>
      </trkpt>
      <trkpt lat="49.42606" lon="4.16566">
        <ele>70.31</ele>
        <time>2021-07-26T12:39:25Z</time>
      </trkpt>
      <trkpt lat="49.42619" lon="4.16486">
        <ele>71.27</ele>
        <time>2021-07-26T12:39:34Z</time>
      </trkpt>
      <trkpt lat="49.42643" lon="4.16256">
        <ele>72.24</ele>
        <time>2021-07-26T12:39:47Z</time>
      </trkpt>
      <trkpt lat="49.42646" lon="4.16224">
        <ele>71.76</ele>
        <time>2021-07-26T12:39:50Z</time>
      </trkpt>
      <trkpt lat="49.42648" lon="4.1621">
        <ele>71.27</ele>
        <time>2021-07-26T12:39:51Z</time>
      </trkpt>
      <trkpt lat="49.42653" lon="4.16195">
        <ele>70.79</ele>
        <time>2021-07-26T12:39:52Z</time>
      </trkpt>
      <trkpt lat="49.42667" lon="4.16154">
        <ele>70.31</ele>
        <time>2021-07-26T12:39:55Z</time>
      </trkpt>
      <trkpt lat="49.42705" lon="4.1596">
        <ele>72.24</ele>
        <time>2021-07-26T12:40:06Z</time>
      </trkpt>
      <trkpt lat="49.42729" lon="4.15772">
        <ele>70.79</ele>
        <time>2021-07-26T12:40:16Z</time>
      </trkpt>
      <trkpt lat="49.42736" lon="4.15752">
        <ele>70.31</ele>
        <time>2021-07-26T12:40:17Z</time>
      </trkpt>
      <trkpt lat="49.42768" lon="4.15653">
        <ele>72.24</ele>
        <time>2021-07-26T12:40:22Z</time>
      </trkpt>
      <trkpt lat="49.42772" lon="4.15632">
        <ele>72.24</ele>
        <time>2021-07-26T12:40:23Z</time>
      </trkpt>
      <trkpt lat="49.42777" lon="4.15611">
        <ele>72.24</ele>
        <time>2021-07-26T12:40:24Z</time>
      </trkpt>
      <trkpt lat="49.42779" lon="4.15587">
        <ele>73.68</ele>
        <time>2021-07-26T12:40:25Z</time>
      </trkpt>
      <trkpt lat="49.42781" lon="4.15564">
        <ele>74.64</ele>
        <time>2021-07-26T12:40:26Z</time>
      </trkpt>
      <trkpt lat="49.42782" lon="4.1554">
        <ele>75.12</ele>
        <time>2021-07-26T12:40:27Z</time>
      </trkpt>
      <trkpt lat="49.42785" lon="4.15224">
        <ele>76.08</ele>
        <time>2021-07-26T12:40:39Z</time>
      </trkpt>
      <trkpt lat="49.42775" lon="4.1486">
        <ele>77.52</ele>
        <time>2021-07-26T12:40:52Z</time>
      </trkpt>
      <trkpt lat="49.42707" lon="4.14359">
        <ele>73.68</ele>
        <time>2021-07-26T12:41:08Z</time>
      </trkpt>
      <trkpt lat="49.42649" lon="4.14115">
        <ele>73.2</ele>
        <time>2021-07-26T12:41:16Z</time>
      </trkpt>
      <trkpt lat="49.42598" lon="4.13876">
        <ele>71.27</ele>
        <time>2021-07-26T12:41:24Z</time>
      </trkpt>
      <trkpt lat="49.42576" lon="4.13705">
        <ele>71.27</ele>
        <time>2021-07-26T12:41:29Z</time>
      </trkpt>
      <trkpt lat="49.42576" lon="4.13705">
        <ele>70.31</ele>
        <time>2021-07-26T12:41:30Z</time>
      </trkpt>
      <trkpt lat="49.42576" lon="4.13675">
        <ele>70.31</ele>
        <time>2021-07-26T12:41:31Z</time>
      </trkpt>
      <trkpt lat="49.42596" lon="4.13377">
        <ele>69.35</ele>
        <time>2021-07-26T12:41:41Z</time>
      </trkpt>
      <trkpt lat="49.42602" lon="4.13185">
        <ele>70.31</ele>
        <time>2021-07-26T12:41:48Z</time>
      </trkpt>
      <trkpt lat="49.42599" lon="4.13163">
        <ele>69.83</ele>
        <time>2021-07-26T12:41:49Z</time>
      </trkpt>
      <trkpt lat="49.42597" lon="4.13144">
        <ele>68.87</ele>
        <time>2021-07-26T12:41:50Z</time>
      </trkpt>
      <trkpt lat="49.42589" lon="4.13125">
        <ele>68.39</ele>
        <time>2021-07-26T12:41:51Z</time>
      </trkpt>
      <trkpt lat="49.42581" lon="4.13107">
        <ele>68.39</ele>
        <time>2021-07-26T12:41:52Z</time>
      </trkpt>
      <trkpt lat="49.42567" lon="4.13066">
        <ele>66.95</ele>
        <time>2021-07-26T12:41:54Z</time>
      </trkpt>
      <trkpt lat="49.4256" lon="4.13046">
        <ele>66.47</ele>
        <time>2021-07-26T12:41:55Z</time>
      </trkpt>
      <trkpt lat="49.42541" lon="4.12807">
        <ele>65.51</ele>
        <time>2021-07-26T12:42:07Z</time>
      </trkpt>
      <trkpt lat="49.42526" lon="4.12636">
        <ele>65.51</ele>
        <time>2021-07-26T12:42:17Z</time>
      </trkpt>
      <trkpt lat="49.42524" lon="4.12621">
        <ele>65.51</ele>
        <time>2021-07-26T12:42:18Z</time>
      </trkpt>
      <trkpt lat="49.42525" lon="4.12605">
        <ele>65.99</ele>
        <time>2021-07-26T12:42:19Z</time>
      </trkpt>
      <trkpt lat="49.42532" lon="4.12539">
        <ele>65.99</ele>
        <time>2021-07-26T12:42:23Z</time>
      </trkpt>
      <trkpt lat="49.42531" lon="4.12523">
        <ele>66.47</ele>
        <time>2021-07-26T12:42:24Z</time>
      </trkpt>
      <trkpt lat="49.42531" lon="4.12505">
        <ele>65.99</ele>
        <time>2021-07-26T12:42:25Z</time>
      </trkpt>
      <trkpt lat="49.42492" lon="4.12235">
        <ele>66.47</ele>
        <time>2021-07-26T12:42:39Z</time>
      </trkpt>
      <trkpt lat="49.42451" lon="4.11909">
        <ele>68.39</ele>
        <time>2021-07-26T12:42:54Z</time>
      </trkpt>
      <trkpt lat="49.42425" lon="4.11582">
        <ele>67.91</ele>
        <time>2021-07-26T12:43:07Z</time>
      </trkpt>
      <trkpt lat="49.42389" lon="4.11144">
        <ele>65.03</ele>
        <time>2021-07-26T12:43:22Z</time>
      </trkpt>
      <trkpt lat="49.42354" lon="4.10776">
        <ele>63.58</ele>
        <time>2021-07-26T12:43:34Z</time>
      </trkpt>
      <trkpt lat="49.42353" lon="4.10629">
        <ele>62.14</ele>
        <time>2021-07-26T12:43:41Z</time>
      </trkpt>
      <trkpt lat="49.42361" lon="4.10557">
        <ele>61.66</ele>
        <time>2021-07-26T12:43:48Z</time>
      </trkpt>
      <trkpt lat="49.42375" lon="4.10448">
        <ele>63.1</ele>
        <time>2021-07-26T12:43:59Z</time>
      </trkpt>
      <trkpt lat="49.42391" lon="4.10264">
        <ele>64.07</ele>
        <time>2021-07-26T12:44:16Z</time>
      </trkpt>
      <trkpt lat="49.42399" lon="4.10082">
        <ele>65.51</ele>
        <time>2021-07-26T12:44:27Z</time>
      </trkpt>
      <trkpt lat="49.4238" lon="4.09896">
        <ele>64.55</ele>
        <time>2021-07-26T12:44:37Z</time>
      </trkpt>
      <trkpt lat="49.42365" lon="4.09836">
        <ele>63.58</ele>
        <time>2021-07-26T12:44:43Z</time>
      </trkpt>
      <trkpt lat="49.42358" lon="4.09808">
        <ele>63.1</ele>
        <time>2021-07-26T12:44:52Z</time>
      </trkpt>
      <trkpt lat="49.42356" lon="4.09788">
        <ele>63.1</ele>
        <time>2021-07-26T12:44:54Z</time>
      </trkpt>
      <trkpt lat="49.42354" lon="4.09776">
        <ele>63.1</ele>
        <time>2021-07-26T12:44:55Z</time>
      </trkpt>
      <trkpt lat="49.42353" lon="4.09763">
        <ele>63.58</ele>
        <time>2021-07-26T12:44:56Z</time>
      </trkpt>
      <trkpt lat="49.42347" lon="4.09571">
        <ele>63.58</ele>
        <time>2021-07-26T12:45:08Z</time>
      </trkpt>
      <trkpt lat="49.42343" lon="4.09527">
        <ele>63.58</ele>
        <time>2021-07-26T12:45:15Z</time>
      </trkpt>
      <trkpt lat="49.42337" lon="4.09417">
        <ele>64.55</ele>
        <time>2021-07-26T12:45:23Z</time>
      </trkpt>
      <trkpt lat="49.42338" lon="4.09125">
        <ele>62.62</ele>
        <time>2021-07-26T12:45:37Z</time>
      </trkpt>
      <trkpt lat="49.42361" lon="4.08817">
        <ele>61.66</ele>
        <time>2021-07-26T12:45:50Z</time>
      </trkpt>
      <trkpt lat="49.42397" lon="4.08538">
        <ele>60.7</ele>
        <time>2021-07-26T12:46:01Z</time>
      </trkpt>
      <trkpt lat="49.42477" lon="4.08173">
        <ele>61.18</ele>
        <time>2021-07-26T12:46:15Z</time>
      </trkpt>
      <trkpt lat="49.42572" lon="4.07829">
        <ele>61.18</ele>
        <time>2021-07-26T12:46:28Z</time>
      </trkpt>
      <trkpt lat="49.42624" lon="4.07513">
        <ele>60.22</ele>
        <time>2021-07-26T12:46:39Z</time>
      </trkpt>
      <trkpt lat="49.42689" lon="4.07086">
        <ele>59.26</ele>
        <time>2021-07-26T12:46:54Z</time>
      </trkpt>
      <trkpt lat="49.42787" lon="4.06728">
        <ele>57.34</ele>
        <time>2021-07-26T12:47:07Z</time>
      </trkpt>
      <trkpt lat="49.42798" lon="4.06704">
        <ele>57.82</ele>
        <time>2021-07-26T12:47:08Z</time>
      </trkpt>
      <trkpt lat="49.43016" lon="4.0628">
        <ele>60.7</ele>
        <time>2021-07-26T12:47:26Z</time>
      </trkpt>
      <trkpt lat="49.43094" lon="4.06071">
        <ele>60.22</ele>
        <time>2021-07-26T12:47:34Z</time>
      </trkpt>
      <trkpt lat="49.4315" lon="4.05797">
        <ele>56.37</ele>
        <time>2021-07-26T12:47:45Z</time>
      </trkpt>
      <trkpt lat="49.43205" lon="4.05589">
        <ele>57.34</ele>
        <time>2021-07-26T12:47:56Z</time>
      </trkpt>
      <trkpt lat="49.43223" lon="4.05533">
        <ele>57.34</ele>
        <time>2021-07-26T12:48:01Z</time>
      </trkpt>
      <trkpt lat="49.43241" lon="4.0548">
        <ele>56.86</ele>
        <time>2021-07-26T12:48:13Z</time>
      </trkpt>
      <trkpt lat="49.4328" lon="4.05332">
        <ele>56.86</ele>
        <time>2021-07-26T12:48:24Z</time>
      </trkpt>
      <trkpt lat="49.4332" lon="4.05154">
        <ele>57.82</ele>
        <time>2021-07-26T12:48:36Z</time>
      </trkpt>
      <trkpt lat="49.43362" lon="4.04954">
        <ele>60.22</ele>
        <time>2021-07-26T12:48:47Z</time>
      </trkpt>
      <trkpt lat="49.43374" lon="4.04879">
        <ele>59.26</ele>
        <time>2021-07-26T12:48:51Z</time>
      </trkpt>
      <trkpt lat="49.43374" lon="4.0486">
        <ele>60.22</ele>
        <time>2021-07-26T12:48:52Z</time>
      </trkpt>
      <trkpt lat="49.43374" lon="4.0486">
        <ele>61.18</ele>
        <time>2021-07-26T12:48:53Z</time>
      </trkpt>
      <trkpt lat="49.43369" lon="4.04844">
        <ele>62.14</ele>
        <time>2021-07-26T12:48:54Z</time>
      </trkpt>
      <trkpt lat="49.43364" lon="4.04827">
        <ele>64.07</ele>
        <time>2021-07-26T12:48:55Z</time>
      </trkpt>
      <trkpt lat="49.43356" lon="4.04813">
        <ele>64.55</ele>
        <time>2021-07-26T12:48:56Z</time>
      </trkpt>
      <trkpt lat="49.43323" lon="4.04752">
        <ele>63.1</ele>
        <time>2021-07-26T12:49:00Z</time>
      </trkpt>
      <trkpt lat="49.43314" lon="4.04739">
        <ele>62.14</ele>
        <time>2021-07-26T12:49:01Z</time>
      </trkpt>
      <trkpt lat="49.43303" lon="4.04732">
        <ele>62.62</ele>
        <time>2021-07-26T12:49:02Z</time>
      </trkpt>
      <trkpt lat="49.43282" lon="4.04719">
        <ele>63.1</ele>
        <time>2021-07-26T12:49:03Z</time>
      </trkpt>
      <trkpt lat="49.43282" lon="4.04719">
        <ele>63.58</ele>
        <time>2021-07-26T12:49:04Z</time>
      </trkpt>
      <trkpt lat="49.43269" lon="4.04714">
        <ele>64.07</ele>
        <time>2021-07-26T12:49:05Z</time>
      </trkpt>
      <trkpt lat="49.43118" lon="4.04671">
        <ele>64.07</ele>
        <time>2021-07-26T12:49:18Z</time>
      </trkpt>
      <trkpt lat="49.42932" lon="4.04614">
        <ele>64.07</ele>
        <time>2021-07-26T12:49:32Z</time>
      </trkpt>
      <trkpt lat="49.42897" lon="4.04597">
        <ele>60.22</ele>
        <time>2021-07-26T12:49:35Z</time>
      </trkpt>
      <trkpt lat="49.42874" lon="4.04573">
        <ele>58.78</ele>
        <time>2021-07-26T12:49:36Z</time>
      </trkpt>
      <trkpt lat="49.42874" lon="4.04573">
        <ele>58.78</ele>
        <time>2021-07-26T12:49:37Z</time>
      </trkpt>
      <trkpt lat="49.42864" lon="4.04555">
        <ele>58.3</ele>
        <time>2021-07-26T12:49:38Z</time>
      </trkpt>
      <trkpt lat="49.42854" lon="4.04538">
        <ele>58.3</ele>
        <time>2021-07-26T12:49:39Z</time>
      </trkpt>
      <trkpt lat="49.42852" lon="4.04517">
        <ele>57.82</ele>
        <time>2021-07-26T12:49:40Z</time>
      </trkpt>
      <trkpt lat="49.4285" lon="4.04498">
        <ele>57.82</ele>
        <time>2021-07-26T12:49:41Z</time>
      </trkpt>
      <trkpt lat="49.42849" lon="4.04464">
        <ele>57.82</ele>
        <time>2021-07-26T12:49:42Z</time>
      </trkpt>
      <trkpt lat="49.42849" lon="4.04464">
        <ele>57.34</ele>
        <time>2021-07-26T12:49:43Z</time>
      </trkpt>
      <trkpt lat="49.4285" lon="4.04448">
        <ele>56.86</ele>
        <time>2021-07-26T12:49:44Z</time>
      </trkpt>
      <trkpt lat="49.42855" lon="4.04396">
        <ele>56.86</ele>
        <time>2021-07-26T12:49:50Z</time>
      </trkpt>
      <trkpt lat="49.42856" lon="4.0438">
        <ele>56.37</ele>
        <time>2021-07-26T12:49:59Z</time>
      </trkpt>
      <trkpt lat="49.42863" lon="4.04374">
        <ele>56.37</ele>
        <time>2021-07-26T12:50:01Z</time>
      </trkpt>
      <trkpt lat="49.42872" lon="4.04374">
        <ele>56.37</ele>
        <time>2021-07-26T12:50:02Z</time>
      </trkpt>
      <trkpt lat="49.42889" lon="4.04374">
        <ele>57.34</ele>
        <time>2021-07-26T12:50:06Z</time>
      </trkpt>
      <trkpt lat="49.42895" lon="4.04371">
        <ele>57.34</ele>
        <time>2021-07-26T12:50:07Z</time>
      </trkpt>
      <trkpt lat="49.42902" lon="4.04368">
        <ele>57.82</ele>
        <time>2021-07-26T12:50:08Z</time>
      </trkpt>
      <trkpt lat="49.42909" lon="4.04364">
        <ele>57.82</ele>
        <time>2021-07-26T12:50:09Z</time>
      </trkpt>
      <trkpt lat="49.42914" lon="4.04354">
        <ele>59.74</ele>
        <time>2021-07-26T12:50:10Z</time>
      </trkpt>
      <trkpt lat="49.42921" lon="4.04342">
        <ele>60.22</ele>
        <time>2021-07-26T12:50:11Z</time>
      </trkpt>
      <trkpt lat="49.42927" lon="4.0433">
        <ele>59.74</ele>
        <time>2021-07-26T12:50:12Z</time>
      </trkpt>
      <trkpt lat="49.42931" lon="4.04315">
        <ele>58.78</ele>
        <time>2021-07-26T12:50:13Z</time>
      </trkpt>
      <trkpt lat="49.42976" lon="4.04138">
        <ele>58.78</ele>
        <time>2021-07-26T12:50:23Z</time>
      </trkpt>
      <trkpt lat="49.43001" lon="4.04003">
        <ele>59.74</ele>
        <time>2021-07-26T12:50:31Z</time>
      </trkpt>
      <trkpt lat="49.43037" lon="4.03806">
        <ele>57.82</ele>
        <time>2021-07-26T12:50:44Z</time>
      </trkpt>
      <trkpt lat="49.43057" lon="4.03727">
        <ele>59.26</ele>
        <time>2021-07-26T12:50:51Z</time>
      </trkpt>
      <trkpt lat="49.43085" lon="4.03633">
        <ele>59.74</ele>
        <time>2021-07-26T12:51:01Z</time>
      </trkpt>
      <trkpt lat="49.43152" lon="4.03463">
        <ele>60.7</ele>
        <time>2021-07-26T12:51:16Z</time>
      </trkpt>
      <trkpt lat="49.43174" lon="4.0341">
        <ele>60.7</ele>
        <time>2021-07-26T12:51:25Z</time>
      </trkpt>
      <trkpt lat="49.43213" lon="4.03314">
        <ele>61.66</ele>
        <time>2021-07-26T12:51:37Z</time>
      </trkpt>
      <trkpt lat="49.43256" lon="4.03164">
        <ele>63.58</ele>
        <time>2021-07-26T12:51:51Z</time>
      </trkpt>
      <trkpt lat="49.43282" lon="4.03091">
        <ele>62.62</ele>
        <time>2021-07-26T12:52:02Z</time>
      </trkpt>
      <trkpt lat="49.43282" lon="4.03091">
        <ele>62.62</ele>
        <time>2021-07-26T12:52:08Z</time>
      </trkpt>
      <trkpt lat="49.43282" lon="4.03079">
        <ele>62.62</ele>
        <time>2021-07-26T12:52:09Z</time>
      </trkpt>
      <trkpt lat="49.43282" lon="4.03079">
        <ele>63.1</ele>
        <time>2021-07-26T12:52:10Z</time>
      </trkpt>
      <trkpt lat="49.4328" lon="4.03077">
        <ele>63.1</ele>
        <time>2021-07-26T12:52:11Z</time>
      </trkpt>
      <trkpt lat="49.43272" lon="4.03071">
        <ele>63.1</ele>
        <time>2021-07-26T12:52:12Z</time>
      </trkpt>
      <trkpt lat="49.43268" lon="4.03067">
        <ele>63.1</ele>
        <time>2021-07-26T12:52:13Z</time>
      </trkpt>
      <trkpt lat="49.43215" lon="4.03019">
        <ele>63.1</ele>
        <time>2021-07-26T12:52:22Z</time>
      </trkpt>
      <trkpt lat="49.43085" lon="4.02914">
        <ele>63.58</ele>
        <time>2021-07-26T12:52:35Z</time>
      </trkpt>
      <trkpt lat="49.43038" lon="4.02876">
        <ele>65.99</ele>
        <time>2021-07-26T12:52:41Z</time>
      </trkpt>
      <trkpt lat="49.42989" lon="4.02834">
        <ele>64.55</ele>
        <time>2021-07-26T12:52:50Z</time>
      </trkpt>
      <trkpt lat="49.42897" lon="4.02749">
        <ele>63.58</ele>
        <time>2021-07-26T12:52:59Z</time>
      </trkpt>
      <trkpt lat="49.42735" lon="4.026">
        <ele>64.07</ele>
        <time>2021-07-26T12:53:12Z</time>
      </trkpt>
      <trkpt lat="49.42605" lon="4.02511">
        <ele>63.58</ele>
        <time>2021-07-26T12:53:21Z</time>
      </trkpt>
      <trkpt lat="49.42487" lon="4.02393">
        <ele>62.14</ele>
        <time>2021-07-26T12:53:29Z</time>
      </trkpt>
      <trkpt lat="49.42309" lon="4.02132">
        <ele>61.18</ele>
        <time>2021-07-26T12:53:42Z</time>
      </trkpt>
      <trkpt lat="49.4221" lon="4.01927">
        <ele>60.22</ele>
        <time>2021-07-26T12:53:51Z</time>
      </trkpt>
      <trkpt lat="49.42097" lon="4.01578">
        <ele>60.7</ele>
        <time>2021-07-26T12:54:04Z</time>
      </trkpt>
      <trkpt lat="49.42075" lon="4.01366">
        <ele>60.7</ele>
        <time>2021-07-26T12:54:12Z</time>
      </trkpt>
      <trkpt lat="49.42064" lon="4.01189">
        <ele>61.18</ele>
        <time>2021-07-26T12:54:22Z</time>
      </trkpt>
      <trkpt lat="49.42046" lon="4.00917">
        <ele>61.18</ele>
        <time>2021-07-26T12:54:41Z</time>
      </trkpt>
      <trkpt lat="49.42042" lon="4.00875">
        <ele>63.58</ele>
        <time>2021-07-26T12:54:44Z</time>
      </trkpt>
      <trkpt lat="49.42039" lon="4.00863">
        <ele>63.58</ele>
        <time>2021-07-26T12:54:45Z</time>
      </trkpt>
      <trkpt lat="49.42037" lon="4.00851">
        <ele>63.58</ele>
        <time>2021-07-26T12:54:46Z</time>
      </trkpt>
      <trkpt lat="49.42032" lon="4.00841">
        <ele>63.58</ele>
        <time>2021-07-26T12:54:47Z</time>
      </trkpt>
      <trkpt lat="49.42027" lon="4.00833">
        <ele>63.1</ele>
        <time>2021-07-26T12:54:48Z</time>
      </trkpt>
      <trkpt lat="49.42021" lon="4.0083">
        <ele>63.1</ele>
        <time>2021-07-26T12:54:49Z</time>
      </trkpt>
      <trkpt lat="49.42013" lon="4.00827">
        <ele>63.1</ele>
        <time>2021-07-26T12:54:50Z</time>
      </trkpt>
      <trkpt lat="49.42006" lon="4.00824">
        <ele>63.1</ele>
        <time>2021-07-26T12:54:51Z</time>
      </trkpt>
      <trkpt lat="49.41963" lon="4.00801">
        <ele>62.62</ele>
        <time>2021-07-26T12:54:57Z</time>
      </trkpt>
      <trkpt lat="49.41955" lon="4.00797">
        <ele>62.14</ele>
        <time>2021-07-26T12:54:58Z</time>
      </trkpt>
      <trkpt lat="49.41942" lon="4.00782">
        <ele>62.14</ele>
        <time>2021-07-26T12:54:59Z</time>
      </trkpt>
      <trkpt lat="49.41942" lon="4.00782">
        <ele>61.66</ele>
        <time>2021-07-26T12:55:00Z</time>
      </trkpt>
      <trkpt lat="49.41931" lon="4.00762">
        <ele>61.66</ele>
        <time>2021-07-26T12:55:01Z</time>
      </trkpt>
      <trkpt lat="49.41931" lon="4.00762">
        <ele>61.18</ele>
        <time>2021-07-26T12:55:02Z</time>
      </trkpt>
      <trkpt lat="49.41927" lon="4.00749">
        <ele>60.7</ele>
        <time>2021-07-26T12:55:03Z</time>
      </trkpt>
      <trkpt lat="49.41926" lon="4.00736">
        <ele>60.7</ele>
        <time>2021-07-26T12:55:04Z</time>
      </trkpt>
      <trkpt lat="49.41926" lon="4.00722">
        <ele>60.22</ele>
        <time>2021-07-26T12:55:05Z</time>
      </trkpt>
      <trkpt lat="49.41924" lon="4.00615">
        <ele>57.34</ele>
        <time>2021-07-26T12:55:12Z</time>
      </trkpt>
      <trkpt lat="49.41926" lon="4.00599">
        <ele>56.86</ele>
        <time>2021-07-26T12:55:13Z</time>
      </trkpt>
      <trkpt lat="49.41929" lon="4.00583">
        <ele>56.86</ele>
        <time>2021-07-26T12:55:14Z</time>
      </trkpt>
      <trkpt lat="49.41983" lon="4.00374">
        <ele>57.82</ele>
        <time>2021-07-26T12:55:28Z</time>
      </trkpt>
      <trkpt lat="49.4199" lon="4.00312">
        <ele>57.82</ele>
        <time>2021-07-26T12:55:35Z</time>
      </trkpt>
      <trkpt lat="49.41996" lon="4.00202">
        <ele>58.78</ele>
        <time>2021-07-26T12:55:45Z</time>
      </trkpt>
      <trkpt lat="49.42032" lon="4.00069">
        <ele>57.82</ele>
        <time>2021-07-26T12:55:55Z</time>
      </trkpt>
      <trkpt lat="49.42078" lon="3.99965">
        <ele>59.74</ele>
        <time>2021-07-26T12:56:05Z</time>
      </trkpt>
      <trkpt lat="49.4211" lon="3.99889">
        <ele>60.7</ele>
        <time>2021-07-26T12:56:15Z</time>
      </trkpt>
      <trkpt lat="49.42163" lon="3.99767">
        <ele>61.18</ele>
        <time>2021-07-26T12:56:25Z</time>
      </trkpt>
      <trkpt lat="49.42186" lon="3.99716">
        <ele>61.66</ele>
        <time>2021-07-26T12:56:29Z</time>
      </trkpt>
      <trkpt lat="49.42245" lon="3.99575">
        <ele>61.18</ele>
        <time>2021-07-26T12:56:37Z</time>
      </trkpt>
      <trkpt lat="49.42361" lon="3.99308">
        <ele>61.18</ele>
        <time>2021-07-26T12:56:48Z</time>
      </trkpt>
      <trkpt lat="49.42545" lon="3.98881">
        <ele>60.22</ele>
        <time>2021-07-26T12:57:03Z</time>
      </trkpt>
      <trkpt lat="49.42709" lon="3.98501">
        <ele>59.74</ele>
        <time>2021-07-26T12:57:16Z</time>
      </trkpt>
      <trkpt lat="49.4291" lon="3.98032">
        <ele>59.26</ele>
        <time>2021-07-26T12:57:34Z</time>
      </trkpt>
      <trkpt lat="49.43052" lon="3.97699">
        <ele>66.47</ele>
        <time>2021-07-26T12:57:48Z</time>
      </trkpt>
      <trkpt lat="49.43099" lon="3.9759">
        <ele>63.58</ele>
        <time>2021-07-26T12:57:55Z</time>
      </trkpt>
      <trkpt lat="49.43103" lon="3.97581">
        <ele>64.07</ele>
        <time>2021-07-26T12:57:56Z</time>
      </trkpt>
      <trkpt lat="49.43107" lon="3.97571">
        <ele>64.07</ele>
        <time>2021-07-26T12:57:57Z</time>
      </trkpt>
      <trkpt lat="49.43111" lon="3.97562">
        <ele>63.58</ele>
        <time>2021-07-26T12:57:58Z</time>
      </trkpt>
      <trkpt lat="49.43115" lon="3.97553">
        <ele>64.07</ele>
        <time>2021-07-26T12:57:59Z</time>
      </trkpt>
      <trkpt lat="49.43123" lon="3.97534">
        <ele>64.07</ele>
        <time>2021-07-26T12:58:00Z</time>
      </trkpt>
      <trkpt lat="49.43123" lon="3.97534">
        <ele>64.07</ele>
        <time>2021-07-26T12:58:01Z</time>
      </trkpt>
      <trkpt lat="49.43127" lon="3.97524">
        <ele>64.07</ele>
        <time>2021-07-26T12:58:02Z</time>
      </trkpt>
      <trkpt lat="49.43132" lon="3.97513">
        <ele>63.58</ele>
        <time>2021-07-26T12:58:03Z</time>
      </trkpt>
      <trkpt lat="49.43138" lon="3.97501">
        <ele>64.07</ele>
        <time>2021-07-26T12:58:04Z</time>
      </trkpt>
      <trkpt lat="49.43228" lon="3.9729">
        <ele>66.47</ele>
        <time>2021-07-26T12:58:18Z</time>
      </trkpt>
      <trkpt lat="49.4335" lon="3.96999">
        <ele>63.58</ele>
        <time>2021-07-26T12:58:37Z</time>
      </trkpt>
      <trkpt lat="49.43384" lon="3.96913">
        <ele>63.1</ele>
        <time>2021-07-26T12:58:46Z</time>
      </trkpt>
      <trkpt lat="49.43415" lon="3.96816">
        <ele>61.66</ele>
        <time>2021-07-26T12:59:01Z</time>
      </trkpt>
      <trkpt lat="49.43428" lon="3.9675">
        <ele>62.62</ele>
        <time>2021-07-26T12:59:12Z</time>
      </trkpt>
      <trkpt lat="49.43431" lon="3.96732">
        <ele>62.62</ele>
        <time>2021-07-26T12:59:14Z</time>
      </trkpt>
      <trkpt lat="49.43432" lon="3.96724">
        <ele>63.1</ele>
        <time>2021-07-26T12:59:15Z</time>
      </trkpt>
      <trkpt lat="49.43432" lon="3.96705">
        <ele>63.58</ele>
        <time>2021-07-26T12:59:17Z</time>
      </trkpt>
      <trkpt lat="49.43433" lon="3.96697">
        <ele>63.58</ele>
        <time>2021-07-26T12:59:18Z</time>
      </trkpt>
      <trkpt lat="49.43433" lon="3.96686">
        <ele>63.58</ele>
        <time>2021-07-26T12:59:19Z</time>
      </trkpt>
      <trkpt lat="49.43433" lon="3.96686">
        <ele>63.58</ele>
        <time>2021-07-26T12:59:20Z</time>
      </trkpt>
      <trkpt lat="49.43433" lon="3.96683">
        <ele>64.07</ele>
        <time>2021-07-26T12:59:21Z</time>
      </trkpt>
      <trkpt lat="49.43433" lon="3.9668">
        <ele>64.07</ele>
        <time>2021-07-26T12:59:22Z</time>
      </trkpt>
      <trkpt lat="49.43433" lon="3.96678">
        <ele>64.07</ele>
        <time>2021-07-26T12:59:23Z</time>
      </trkpt>
      <trkpt lat="49.43434" lon="3.96673">
        <ele>64.07</ele>
        <time>2021-07-26T12:59:24Z</time>
      </trkpt>
      <trkpt lat="49.43433" lon="3.96672">
        <ele>64.07</ele>
        <time>2021-07-26T12:59:25Z</time>
      </trkpt>
      <trkpt lat="49.4344" lon="3.96675">
        <ele>64.07</ele>
        <time>2021-07-26T12:59:26Z</time>
      </trkpt>
      <trkpt lat="49.43438" lon="3.96675">
        <ele>64.07</ele>
        <time>2021-07-26T12:59:27Z</time>
      </trkpt>
      <trkpt lat="49.43438" lon="3.96675">
        <ele>64.07</ele>
        <time>2021-07-26T12:59:40Z</time>
      </trkpt>
      <trkpt lat="49.43434" lon="3.96673">
        <ele>64.07</ele>
        <time>2021-07-26T12:59:41Z</time>
      </trkpt>
      <trkpt lat="49.43434" lon="3.96673">
        <ele>64.07</ele>
        <time>2021-07-26T12:59:42Z</time>
      </trkpt>
      <trkpt lat="49.43434" lon="3.96676">
        <ele>64.07</ele>
        <time>2021-07-26T12:59:43Z</time>
      </trkpt>
      <trkpt lat="49.43433" lon="3.96682">
        <ele>63.58</ele>
        <time>2021-07-26T12:59:44Z</time>
      </trkpt>
      <trkpt lat="49.43433" lon="3.96688">
        <ele>63.58</ele>
        <time>2021-07-26T12:59:45Z</time>
      </trkpt>
      <trkpt lat="49.43433" lon="3.96693">
        <ele>63.58</ele>
        <time>2021-07-26T12:59:46Z</time>
      </trkpt>
      <trkpt lat="49.4343" lon="3.96741">
        <ele>62.62</ele>
        <time>2021-07-26T12:59:57Z</time>
      </trkpt>
      <trkpt lat="49.43413" lon="3.96822">
        <ele>61.18</ele>
        <time>2021-07-26T13:00:09Z</time>
      </trkpt>
      <trkpt lat="49.4341" lon="3.96831">
        <ele>60.22</ele>
        <time>2021-07-26T13:00:20Z</time>
      </trkpt>
      <trkpt lat="49.4341" lon="3.96831">
        <ele>60.7</ele>
        <time>2021-07-26T13:03:54Z</time>
      </trkpt>
      <trkpt lat="49.43408" lon="3.9684">
        <ele>60.7</ele>
        <time>2021-07-26T13:03:55Z</time>
      </trkpt>
      <trkpt lat="49.43407" lon="3.96843">
        <ele>60.7</ele>
        <time>2021-07-26T13:03:56Z</time>
      </trkpt>
      <trkpt lat="49.43405" lon="3.96847">
        <ele>60.7</ele>
        <time>2021-07-26T13:03:57Z</time>
      </trkpt>
      <trkpt lat="49.43404" lon="3.96851">
        <ele>60.7</ele>
        <time>2021-07-26T13:03:58Z</time>
      </trkpt>
      <trkpt lat="49.4338" lon="3.96925">
        <ele>62.14</ele>
        <time>2021-07-26T13:04:08Z</time>
      </trkpt>
      <trkpt lat="49.43307" lon="3.97102">
        <ele>62.14</ele>
        <time>2021-07-26T13:04:21Z</time>
      </trkpt>
      <trkpt lat="49.43289" lon="3.97148">
        <ele>63.58</ele>
        <time>2021-07-26T13:04:27Z</time>
      </trkpt>
      <trkpt lat="49.43286" lon="3.97154">
        <ele>64.07</ele>
        <time>2021-07-26T13:04:29Z</time>
      </trkpt>
      <trkpt lat="49.43284" lon="3.97158">
        <ele>64.55</ele>
        <time>2021-07-26T13:04:43Z</time>
      </trkpt>
      <trkpt lat="49.43284" lon="3.97158">
        <ele>64.55</ele>
        <time>2021-07-26T13:04:44Z</time>
      </trkpt>
      <trkpt lat="49.43284" lon="3.9716">
        <ele>64.55</ele>
        <time>2021-07-26T13:04:45Z</time>
      </trkpt>
      <trkpt lat="49.43283" lon="3.97161">
        <ele>64.55</ele>
        <time>2021-07-26T13:04:46Z</time>
      </trkpt>
      <trkpt lat="49.43293" lon="3.9715">
        <ele>64.55</ele>
        <time>2021-07-26T13:04:50Z</time>
      </trkpt>
      <trkpt lat="49.43293" lon="3.9715">
        <ele>64.55</ele>
        <time>2021-07-26T13:04:56Z</time>
      </trkpt>
      <trkpt lat="49.43285" lon="3.97157">
        <ele>64.55</ele>
        <time>2021-07-26T13:04:57Z</time>
      </trkpt>
      <trkpt lat="49.43285" lon="3.97156">
        <ele>64.55</ele>
        <time>2021-07-26T13:04:58Z</time>
      </trkpt>
      <trkpt lat="49.43286" lon="3.97153">
        <ele>64.55</ele>
        <time>2021-07-26T13:04:59Z</time>
      </trkpt>
      <trkpt lat="49.43288" lon="3.97149">
        <ele>64.55</ele>
        <time>2021-07-26T13:05:00Z</time>
      </trkpt>
      <trkpt lat="49.4329" lon="3.97145">
        <ele>65.03</ele>
        <time>2021-07-26T13:05:01Z</time>
      </trkpt>
      <trkpt lat="49.43292" lon="3.9714">
        <ele>65.51</ele>
        <time>2021-07-26T13:05:02Z</time>
      </trkpt>
      <trkpt lat="49.43325" lon="3.9706">
        <ele>67.43</ele>
        <time>2021-07-26T13:05:10Z</time>
      </trkpt>
      <trkpt lat="49.43399" lon="3.96866">
        <ele>63.1</ele>
        <time>2021-07-26T13:05:26Z</time>
      </trkpt>
      <trkpt lat="49.43432" lon="3.96726">
        <ele>65.51</ele>
        <time>2021-07-26T13:05:38Z</time>
      </trkpt>
      <trkpt lat="49.43432" lon="3.96713">
        <ele>65.99</ele>
        <time>2021-07-26T13:05:39Z</time>
      </trkpt>
      <trkpt lat="49.43433" lon="3.967">
        <ele>65.99</ele>
        <time>2021-07-26T13:05:40Z</time>
      </trkpt>
      <trkpt lat="49.43433" lon="3.96687">
        <ele>66.47</ele>
        <time>2021-07-26T13:05:41Z</time>
      </trkpt>
      <trkpt lat="49.43434" lon="3.96673">
        <ele>66.47</ele>
        <time>2021-07-26T13:05:42Z</time>
      </trkpt>
      <trkpt lat="49.43432" lon="3.96661">
        <ele>65.99</ele>
        <time>2021-07-26T13:05:43Z</time>
      </trkpt>
      <trkpt lat="49.434" lon="3.96415">
        <ele>59.74</ele>
        <time>2021-07-26T13:05:58Z</time>
      </trkpt>
      <trkpt lat="49.43391" lon="3.96145">
        <ele>64.07</ele>
        <time>2021-07-26T13:06:13Z</time>
      </trkpt>
      <trkpt lat="49.43402" lon="3.95956">
        <ele>71.27</ele>
        <time>2021-07-26T13:06:23Z</time>
      </trkpt>
      <trkpt lat="49.43411" lon="3.95737">
        <ele>77.52</ele>
        <time>2021-07-26T13:06:33Z</time>
      </trkpt>
      <trkpt lat="49.43411" lon="3.95717">
        <ele>77.04</ele>
        <time>2021-07-26T13:06:34Z</time>
      </trkpt>
      <trkpt lat="49.4341" lon="3.95697">
        <ele>77.04</ele>
        <time>2021-07-26T13:06:35Z</time>
      </trkpt>
      <trkpt lat="49.43361" lon="3.95555">
        <ele>73.68</ele>
        <time>2021-07-26T13:06:43Z</time>
      </trkpt>
      <trkpt lat="49.43321" lon="3.95472">
        <ele>75.12</ele>
        <time>2021-07-26T13:06:53Z</time>
      </trkpt>
      <trkpt lat="49.43259" lon="3.95342">
        <ele>74.16</ele>
        <time>2021-07-26T13:07:02Z</time>
      </trkpt>
      <trkpt lat="49.43148" lon="3.9511">
        <ele>73.2</ele>
        <time>2021-07-26T13:07:14Z</time>
      </trkpt>
      <trkpt lat="49.43017" lon="3.94835">
        <ele>69.35</ele>
        <time>2021-07-26T13:07:27Z</time>
      </trkpt>
      <trkpt lat="49.429" lon="3.94555">
        <ele>68.39</ele>
        <time>2021-07-26T13:07:39Z</time>
      </trkpt>
      <trkpt lat="49.428" lon="3.94174">
        <ele>68.87</ele>
        <time>2021-07-26T13:07:53Z</time>
      </trkpt>
      <trkpt lat="49.42674" lon="3.93676">
        <ele>63.58</ele>
        <time>2021-07-26T13:08:10Z</time>
      </trkpt>
      <trkpt lat="49.42566" lon="3.93295">
        <ele>59.26</ele>
        <time>2021-07-26T13:08:24Z</time>
      </trkpt>
      <trkpt lat="49.42421" lon="3.9281">
        <ele>65.03</ele>
        <time>2021-07-26T13:08:42Z</time>
      </trkpt>
      <trkpt lat="49.42271" lon="3.92323">
        <ele>70.79</ele>
        <time>2021-07-26T13:08:59Z</time>
      </trkpt>
      <trkpt lat="49.42127" lon="3.9189">
        <ele>71.27</ele>
        <time>2021-07-26T13:09:14Z</time>
      </trkpt>
      <trkpt lat="49.41882" lon="3.91165">
        <ele>68.39</ele>
        <time>2021-07-26T13:09:38Z</time>
      </trkpt>
      <trkpt lat="49.4172" lon="3.9073">
        <ele>69.35</ele>
        <time>2021-07-26T13:09:53Z</time>
      </trkpt>
      <trkpt lat="49.41559" lon="3.90342">
        <ele>64.55</ele>
        <time>2021-07-26T13:10:07Z</time>
      </trkpt>
      <trkpt lat="49.4139" lon="3.89819">
        <ele>64.07</ele>
        <time>2021-07-26T13:10:24Z</time>
      </trkpt>
      <trkpt lat="49.41343" lon="3.89477">
        <ele>62.14</ele>
        <time>2021-07-26T13:10:34Z</time>
      </trkpt>
      <trkpt lat="49.41324" lon="3.89073">
        <ele>57.82</ele>
        <time>2021-07-26T13:10:48Z</time>
      </trkpt>
      <trkpt lat="49.41309" lon="3.88865">
        <ele>59.74</ele>
        <time>2021-07-26T13:10:57Z</time>
      </trkpt>
      <trkpt lat="49.41305" lon="3.88846">
        <ele>59.26</ele>
        <time>2021-07-26T13:10:58Z</time>
      </trkpt>
      <trkpt lat="49.41301" lon="3.88827">
        <ele>58.78</ele>
        <time>2021-07-26T13:10:59Z</time>
      </trkpt>
      <trkpt lat="49.41298" lon="3.88812">
        <ele>58.78</ele>
        <time>2021-07-26T13:11:00Z</time>
      </trkpt>
      <trkpt lat="49.41295" lon="3.888">
        <ele>58.78</ele>
        <time>2021-07-26T13:11:01Z</time>
      </trkpt>
      <trkpt lat="49.4127" lon="3.88731">
        <ele>57.34</ele>
        <time>2021-07-26T13:11:08Z</time>
      </trkpt>
      <trkpt lat="49.41266" lon="3.88723">
        <ele>56.86</ele>
        <time>2021-07-26T13:11:09Z</time>
      </trkpt>
      <trkpt lat="49.41267" lon="3.88708">
        <ele>56.86</ele>
        <time>2021-07-26T13:11:10Z</time>
      </trkpt>
      <trkpt lat="49.4127" lon="3.88699">
        <ele>56.86</ele>
        <time>2021-07-26T13:11:11Z</time>
      </trkpt>
      <trkpt lat="49.41273" lon="3.88689">
        <ele>56.86</ele>
        <time>2021-07-26T13:11:12Z</time>
      </trkpt>
      <trkpt lat="49.41277" lon="3.8868">
        <ele>56.86</ele>
        <time>2021-07-26T13:11:13Z</time>
      </trkpt>
      <trkpt lat="49.41283" lon="3.8867">
        <ele>57.34</ele>
        <time>2021-07-26T13:11:14Z</time>
      </trkpt>
      <trkpt lat="49.4129" lon="3.88657">
        <ele>57.34</ele>
        <time>2021-07-26T13:11:15Z</time>
      </trkpt>
      <trkpt lat="49.41297" lon="3.88644">
        <ele>56.86</ele>
        <time>2021-07-26T13:11:16Z</time>
      </trkpt>
      <trkpt lat="49.41386" lon="3.88529">
        <ele>54.93</ele>
        <time>2021-07-26T13:11:25Z</time>
      </trkpt>
      <trkpt lat="49.41536" lon="3.88339">
        <ele>50.13</ele>
        <time>2021-07-26T13:11:36Z</time>
      </trkpt>
      <trkpt lat="49.41826" lon="3.87974">
        <ele>50.61</ele>
        <time>2021-07-26T13:11:54Z</time>
      </trkpt>
      <trkpt lat="49.42145" lon="3.87574">
        <ele>55.89</ele>
        <time>2021-07-26T13:12:12Z</time>
      </trkpt>
      <trkpt lat="49.42543" lon="3.87072">
        <ele>59.26</ele>
        <time>2021-07-26T13:12:35Z</time>
      </trkpt>
      <trkpt lat="49.42877" lon="3.86654">
        <ele>64.07</ele>
        <time>2021-07-26T13:12:55Z</time>
      </trkpt>
      <trkpt lat="49.43057" lon="3.86428">
        <ele>65.99</ele>
        <time>2021-07-26T13:13:07Z</time>
      </trkpt>
      <trkpt lat="49.4329" lon="3.86135">
        <ele>67.43</ele>
        <time>2021-07-26T13:13:26Z</time>
      </trkpt>
      <trkpt lat="49.4349" lon="3.85883">
        <ele>67.43</ele>
        <time>2021-07-26T13:13:40Z</time>
      </trkpt>
      <trkpt lat="49.43769" lon="3.85532">
        <ele>66.95</ele>
        <time>2021-07-26T13:13:57Z</time>
      </trkpt>
      <trkpt lat="49.44072" lon="3.8515">
        <ele>66.47</ele>
        <time>2021-07-26T13:14:14Z</time>
      </trkpt>
      <trkpt lat="49.44257" lon="3.84917">
        <ele>68.87</ele>
        <time>2021-07-26T13:14:26Z</time>
      </trkpt>
      <trkpt lat="49.44563" lon="3.84532">
        <ele>71.76</ele>
        <time>2021-07-26T13:14:45Z</time>
      </trkpt>
      <trkpt lat="49.44841" lon="3.84182">
        <ele>72.24</ele>
        <time>2021-07-26T13:15:03Z</time>
      </trkpt>
      <trkpt lat="49.45087" lon="3.83873">
        <ele>74.16</ele>
        <time>2021-07-26T13:15:20Z</time>
      </trkpt>
      <trkpt lat="49.4533" lon="3.83567">
        <ele>77.52</ele>
        <time>2021-07-26T13:15:36Z</time>
      </trkpt>
      <trkpt lat="49.45528" lon="3.83317">
        <ele>78</ele>
        <time>2021-07-26T13:15:50Z</time>
      </trkpt>
      <trkpt lat="49.4573" lon="3.83063">
        <ele>76.08</ele>
        <time>2021-07-26T13:16:04Z</time>
      </trkpt>
      <trkpt lat="49.45837" lon="3.82929">
        <ele>77.04</ele>
        <time>2021-07-26T13:16:13Z</time>
      </trkpt>
      <trkpt lat="49.4609" lon="3.82609">
        <ele>85.69</ele>
        <time>2021-07-26T13:16:37Z</time>
      </trkpt>
      <trkpt lat="49.4623" lon="3.82431">
        <ele>88.1</ele>
        <time>2021-07-26T13:16:52Z</time>
      </trkpt>
      <trkpt lat="49.4626" lon="3.82395">
        <ele>87.14</ele>
        <time>2021-07-26T13:16:58Z</time>
      </trkpt>
      <trkpt lat="49.46268" lon="3.82384">
        <ele>87.62</ele>
        <time>2021-07-26T13:17:01Z</time>
      </trkpt>
      <trkpt lat="49.46269" lon="3.82383">
        <ele>87.62</ele>
        <time>2021-07-26T13:17:02Z</time>
      </trkpt>
      <trkpt lat="49.46268" lon="3.82384">
        <ele>87.62</ele>
        <time>2021-07-26T13:17:03Z</time>
      </trkpt>
      <trkpt lat="49.46264" lon="3.82382">
        <ele>87.62</ele>
        <time>2021-07-26T13:17:04Z</time>
      </trkpt>
      <trkpt lat="49.46263" lon="3.8238">
        <ele>87.62</ele>
        <time>2021-07-26T13:17:05Z</time>
      </trkpt>
      <trkpt lat="49.4626" lon="3.82377">
        <ele>87.62</ele>
        <time>2021-07-26T13:17:06Z</time>
      </trkpt>
      <trkpt lat="49.46257" lon="3.82372">
        <ele>87.14</ele>
        <time>2021-07-26T13:17:07Z</time>
      </trkpt>
      <trkpt lat="49.46228" lon="3.82326">
        <ele>87.14</ele>
        <time>2021-07-26T13:17:14Z</time>
      </trkpt>
      <trkpt lat="49.46224" lon="3.82319">
        <ele>87.14</ele>
        <time>2021-07-26T13:17:15Z</time>
      </trkpt>
      <trkpt lat="49.46221" lon="3.82309">
        <ele>87.14</ele>
        <time>2021-07-26T13:17:16Z</time>
      </trkpt>
      <trkpt lat="49.46218" lon="3.82299">
        <ele>87.14</ele>
        <time>2021-07-26T13:17:17Z</time>
      </trkpt>
      <trkpt lat="49.46216" lon="3.8229">
        <ele>87.14</ele>
        <time>2021-07-26T13:17:18Z</time>
      </trkpt>
      <trkpt lat="49.46214" lon="3.82282">
        <ele>87.14</ele>
        <time>2021-07-26T13:17:19Z</time>
      </trkpt>
      <trkpt lat="49.46194" lon="3.82171">
        <ele>88.1</ele>
        <time>2021-07-26T13:17:32Z</time>
      </trkpt>
      <trkpt lat="49.4617" lon="3.82008">
        <ele>88.58</ele>
        <time>2021-07-26T13:17:43Z</time>
      </trkpt>
      <trkpt lat="49.46166" lon="3.81956">
        <ele>88.1</ele>
        <time>2021-07-26T13:17:47Z</time>
      </trkpt>
      <trkpt lat="49.46164" lon="3.81943">
        <ele>88.1</ele>
        <time>2021-07-26T13:17:48Z</time>
      </trkpt>
      <trkpt lat="49.46161" lon="3.81932">
        <ele>88.1</ele>
        <time>2021-07-26T13:17:49Z</time>
      </trkpt>
      <trkpt lat="49.46158" lon="3.81921">
        <ele>87.62</ele>
        <time>2021-07-26T13:17:50Z</time>
      </trkpt>
      <trkpt lat="49.46154" lon="3.8191">
        <ele>87.62</ele>
        <time>2021-07-26T13:17:51Z</time>
      </trkpt>
      <trkpt lat="49.46148" lon="3.81901">
        <ele>87.14</ele>
        <time>2021-07-26T13:17:52Z</time>
      </trkpt>
      <trkpt lat="49.46142" lon="3.81893">
        <ele>86.66</ele>
        <time>2021-07-26T13:17:53Z</time>
      </trkpt>
      <trkpt lat="49.46115" lon="3.8186">
        <ele>84.73</ele>
        <time>2021-07-26T13:17:57Z</time>
      </trkpt>
      <trkpt lat="49.46106" lon="3.81854">
        <ele>84.25</ele>
        <time>2021-07-26T13:17:58Z</time>
      </trkpt>
      <trkpt lat="49.46096" lon="3.81848">
        <ele>82.81</ele>
        <time>2021-07-26T13:17:59Z</time>
      </trkpt>
      <trkpt lat="49.46087" lon="3.81843">
        <ele>80.89</ele>
        <time>2021-07-26T13:18:00Z</time>
      </trkpt>
      <trkpt lat="49.46075" lon="3.81842">
        <ele>79.45</ele>
        <time>2021-07-26T13:18:01Z</time>
      </trkpt>
      <trkpt lat="49.46063" lon="3.81842">
        <ele>78.48</ele>
        <time>2021-07-26T13:18:02Z</time>
      </trkpt>
      <trkpt lat="49.46052" lon="3.81843">
        <ele>78</ele>
        <time>2021-07-26T13:18:03Z</time>
      </trkpt>
      <trkpt lat="49.45887" lon="3.81854">
        <ele>69.83</ele>
        <time>2021-07-26T13:18:16Z</time>
      </trkpt>
      <trkpt lat="49.45835" lon="3.81839">
        <ele>69.35</ele>
        <time>2021-07-26T13:18:20Z</time>
      </trkpt>
      <trkpt lat="49.45835" lon="3.81839">
        <ele>69.35</ele>
        <time>2021-07-26T13:18:21Z</time>
      </trkpt>
      <trkpt lat="49.4582" lon="3.81827">
        <ele>70.31</ele>
        <time>2021-07-26T13:18:22Z</time>
      </trkpt>
      <trkpt lat="49.4582" lon="3.81827">
        <ele>70.31</ele>
        <time>2021-07-26T13:18:23Z</time>
      </trkpt>
      <trkpt lat="49.45814" lon="3.81818">
        <ele>70.31</ele>
        <time>2021-07-26T13:18:24Z</time>
      </trkpt>
      <trkpt lat="49.45753" lon="3.81715">
        <ele>70.31</ele>
        <time>2021-07-26T13:18:33Z</time>
      </trkpt>
      <trkpt lat="49.45651" lon="3.81424">
        <ele>67.91</ele>
        <time>2021-07-26T13:18:49Z</time>
      </trkpt>
      <trkpt lat="49.45596" lon="3.81273">
        <ele>66.95</ele>
        <time>2021-07-26T13:18:57Z</time>
      </trkpt>
      <trkpt lat="49.45588" lon="3.81257">
        <ele>66.95</ele>
        <time>2021-07-26T13:18:58Z</time>
      </trkpt>
      <trkpt lat="49.45579" lon="3.81243">
        <ele>66.95</ele>
        <time>2021-07-26T13:18:59Z</time>
      </trkpt>
      <trkpt lat="49.45436" lon="3.81056">
        <ele>67.91</ele>
        <time>2021-07-26T13:19:11Z</time>
      </trkpt>
      <trkpt lat="49.45254" lon="3.80817">
        <ele>69.83</ele>
        <time>2021-07-26T13:19:26Z</time>
      </trkpt>
      <trkpt lat="49.45245" lon="3.80802">
        <ele>69.83</ele>
        <time>2021-07-26T13:19:27Z</time>
      </trkpt>
      <trkpt lat="49.45238" lon="3.80784">
        <ele>70.79</ele>
        <time>2021-07-26T13:19:28Z</time>
      </trkpt>
      <trkpt lat="49.45231" lon="3.80765">
        <ele>71.76</ele>
        <time>2021-07-26T13:19:29Z</time>
      </trkpt>
      <trkpt lat="49.45226" lon="3.80745">
        <ele>72.24</ele>
        <time>2021-07-26T13:19:30Z</time>
      </trkpt>
      <trkpt lat="49.45154" lon="3.80455">
        <ele>73.2</ele>
        <time>2021-07-26T13:19:44Z</time>
      </trkpt>
      <trkpt lat="49.45137" lon="3.8042">
        <ele>74.16</ele>
        <time>2021-07-26T13:19:46Z</time>
      </trkpt>
      <trkpt lat="49.4513" lon="3.80403">
        <ele>73.2</ele>
        <time>2021-07-26T13:19:47Z</time>
      </trkpt>
      <trkpt lat="49.4512" lon="3.80389">
        <ele>73.2</ele>
        <time>2021-07-26T13:19:48Z</time>
      </trkpt>
      <trkpt lat="49.45001" lon="3.80233">
        <ele>74.16</ele>
        <time>2021-07-26T13:19:59Z</time>
      </trkpt>
      <trkpt lat="49.44905" lon="3.80105">
        <ele>77.52</ele>
        <time>2021-07-26T13:20:12Z</time>
      </trkpt>
      <trkpt lat="49.44901" lon="3.80097">
        <ele>78</ele>
        <time>2021-07-26T13:20:13Z</time>
      </trkpt>
      <trkpt lat="49.44895" lon="3.80074">
        <ele>78.97</ele>
        <time>2021-07-26T13:20:20Z</time>
      </trkpt>
      <trkpt lat="49.44873" lon="3.7999">
        <ele>80.89</ele>
        <time>2021-07-26T13:20:29Z</time>
      </trkpt>
      <trkpt lat="49.44828" lon="3.7982">
        <ele>88.1</ele>
        <time>2021-07-26T13:20:41Z</time>
      </trkpt>
      <trkpt lat="49.44759" lon="3.79548">
        <ele>102.04</ele>
        <time>2021-07-26T13:20:56Z</time>
      </trkpt>
      <trkpt lat="49.44723" lon="3.79406">
        <ele>111.17</ele>
        <time>2021-07-26T13:21:04Z</time>
      </trkpt>
      <trkpt lat="49.44718" lon="3.79395">
        <ele>112.13</ele>
        <time>2021-07-26T13:21:05Z</time>
      </trkpt>
      <trkpt lat="49.44712" lon="3.79385">
        <ele>113.09</ele>
        <time>2021-07-26T13:21:06Z</time>
      </trkpt>
      <trkpt lat="49.44705" lon="3.79375">
        <ele>113.09</ele>
        <time>2021-07-26T13:21:07Z</time>
      </trkpt>
      <trkpt lat="49.44696" lon="3.79364">
        <ele>113.09</ele>
        <time>2021-07-26T13:21:08Z</time>
      </trkpt>
      <trkpt lat="49.44583" lon="3.79264">
        <ele>115.5</ele>
        <time>2021-07-26T13:21:18Z</time>
      </trkpt>
      <trkpt lat="49.44541" lon="3.79217">
        <ele>116.46</ele>
        <time>2021-07-26T13:21:23Z</time>
      </trkpt>
      <trkpt lat="49.44488" lon="3.79102">
        <ele>123.67</ele>
        <time>2021-07-26T13:21:34Z</time>
      </trkpt>
      <trkpt lat="49.4448" lon="3.79083">
        <ele>122.71</ele>
        <time>2021-07-26T13:21:41Z</time>
      </trkpt>
      <trkpt lat="49.4446" lon="3.79016">
        <ele>119.82</ele>
        <time>2021-07-26T13:21:51Z</time>
      </trkpt>
      <trkpt lat="49.44425" lon="3.78864">
        <ele>109.25</ele>
        <time>2021-07-26T13:22:02Z</time>
      </trkpt>
      <trkpt lat="49.44402" lon="3.78768">
        <ele>104.92</ele>
        <time>2021-07-26T13:22:08Z</time>
      </trkpt>
      <trkpt lat="49.44397" lon="3.7876">
        <ele>103.96</ele>
        <time>2021-07-26T13:22:09Z</time>
      </trkpt>
      <trkpt lat="49.44397" lon="3.7876">
        <ele>103.48</ele>
        <time>2021-07-26T13:22:10Z</time>
      </trkpt>
      <trkpt lat="49.44392" lon="3.78752">
        <ele>102.52</ele>
        <time>2021-07-26T13:22:11Z</time>
      </trkpt>
      <trkpt lat="49.44385" lon="3.78744">
        <ele>102.04</ele>
        <time>2021-07-26T13:22:12Z</time>
      </trkpt>
      <trkpt lat="49.44317" lon="3.78679">
        <ele>94.35</ele>
        <time>2021-07-26T13:22:21Z</time>
      </trkpt>
      <trkpt lat="49.4431" lon="3.78674">
        <ele>93.87</ele>
        <time>2021-07-26T13:22:22Z</time>
      </trkpt>
      <trkpt lat="49.44301" lon="3.78673">
        <ele>91.46</ele>
        <time>2021-07-26T13:22:23Z</time>
      </trkpt>
      <trkpt lat="49.4429" lon="3.78672">
        <ele>89.54</ele>
        <time>2021-07-26T13:22:24Z</time>
      </trkpt>
      <trkpt lat="49.44279" lon="3.78671">
        <ele>89.54</ele>
        <time>2021-07-26T13:22:25Z</time>
      </trkpt>
      <trkpt lat="49.44268" lon="3.7867">
        <ele>89.54</ele>
        <time>2021-07-26T13:22:26Z</time>
      </trkpt>
      <trkpt lat="49.44176" lon="3.78708">
        <ele>90.5</ele>
        <time>2021-07-26T13:22:36Z</time>
      </trkpt>
      <trkpt lat="49.44168" lon="3.78712">
        <ele>90.5</ele>
        <time>2021-07-26T13:22:37Z</time>
      </trkpt>
      <trkpt lat="49.4416" lon="3.78716">
        <ele>90.5</ele>
        <time>2021-07-26T13:22:38Z</time>
      </trkpt>
      <trkpt lat="49.44153" lon="3.78717">
        <ele>90.5</ele>
        <time>2021-07-26T13:22:39Z</time>
      </trkpt>
      <trkpt lat="49.44145" lon="3.78717">
        <ele>90.02</ele>
        <time>2021-07-26T13:22:40Z</time>
      </trkpt>
      <trkpt lat="49.44136" lon="3.78717">
        <ele>90.02</ele>
        <time>2021-07-26T13:22:41Z</time>
      </trkpt>
      <trkpt lat="49.44126" lon="3.78715">
        <ele>89.54</ele>
        <time>2021-07-26T13:22:42Z</time>
      </trkpt>
      <trkpt lat="49.44038" lon="3.78677">
        <ele>87.62</ele>
        <time>2021-07-26T13:22:54Z</time>
      </trkpt>
    </trkseg>
  </trk>
</gpx>